Flight Track Log - Related Links

Times and Time Zones

All times are in EDT time to prevent confusion due to time zone crossing. See the UAL139 flight status page for this flight to view local times or setup timezone preferences in your user account.

Time Position Orientation Groundspeed Altitude Reporting Facility
EDT Latitude Longitude Course Direction KTS MPH feet Rate Location/Type
Fri 02:29:25 PM 39.8650 -104.6960 333° Northwest 140 161 5,100  Level FlightAware ADS-B
Fri 02:29:49 PM 39.8830 -104.6960 360° North 178 205 5,500 1,800 Climbing FlightAware ADS-B
Fri 02:30:05 PM 39.8970 -104.6970 357° North 179 206 6,300 3,000 Climbing FlightAware ADS-B
Fri 02:30:09 PM 39.9010 -104.6980 349° North 181 208 6,500 1,500 Climbing FlightAware ADS-B
Fri 02:30:17 PM 39.9070 -104.7020 333° Northwest 189 217 6,600 1,125 Climbing FlightAware ADS-B
Fri 02:30:25 PM 39.9130 -104.7080 323° Northwest 199 229 6,800 1,125 Climbing FlightAware ADS-B
Fri 02:30:33 PM 39.9170 -104.7160 303° West 214 246 6,900 500 Climbing FlightAware ADS-B
Fri 02:30:37 PM 39.9190 -104.7210 298° West 223 257 6,900 500 Level FlightAware ADS-B
Fri 02:30:45 PM 39.9200 -104.7320 277° West 239 275 7,000 1,750 Climbing FlightAware ADS-B
Fri 02:31:01 PM 39.9220 -104.7560 276° West 247 284 7,600 2,333 Climbing FlightAware ADS-B
Fri 02:31:21 PM 39.9240 -104.7870 275° West 260 299 8,400 1,875 Climbing FlightAware ADS-B
Fri 02:31:33 PM 39.9270 -104.8060 282° West 274 315 8,600 2,438 Climbing FlightAware ADS-B
Fri 02:31:53 PM 39.9320 -104.8380 282° West 272 313 9,700 2,571 Climbing FlightAware ADS-B
Fri 02:32:22 PM 39.9397 -104.8841 282° West 295 339 10,700 1,869 Climbing FlightAware ADS-B (KEIK)
Fri 02:32:54 PM 39.9444 -104.9436 276° West 319 367 11,600 2,129 Climbing FlightAware ADS-B (KEIK)
Fri 02:33:24 PM 39.9446 -104.9990 270° West 329 379 12,900 2,600 Climbing FlightAware ADS-B (KEIK)
Fri 02:33:54 PM 39.9378 -105.0606 262° West 338 389 14,200 2,361 Climbing FlightAware ADS-B (KEIK)
Fri 02:34:25 PM 39.9303 -105.1258 261° West 350 403 15,300 2,066 Climbing FlightAware ADS-B (KEIK)
Fri 02:34:55 PM 39.9230 -105.1897 262° West 362 417 16,300 2,060 Climbing FlightAware ADS-B (KEIK)
Fri 02:35:32 PM 39.9135 -105.2696 261° West 371 427 17,600 2,149 Climbing FlightAware ADS-B (KEIK)
Fri 02:36:02 PM 39.9061 -105.3336 261° West 379 436 18,700 2,100 Climbing FlightAware ADS-B (KEIK)
Fri 02:36:32 PM 39.8981 -105.4041 262° West 382 440 19,700 2,100 Climbing FlightAware ADS-B (KEIK)
Fri 02:37:02 PM 39.8908 -105.4668 261° West 386 444 20,800 1,823 Climbing FlightAware ADS-B (KEIK)
Fri 02:37:51 PM 39.8793 -105.5673 262° West 402 463 22,100 1,704 Climbing FlightAware ADS-B (KEIK)
Fri 02:38:23 PM 39.8670 -105.6660 261° West 408 470 23,100 1,814 Climbing FlightAware ADS-B
Fri 02:38:34 PM 39.8642 -105.6912 262° West 413 475 23,400 1,647 Climbing FlightAware ADS-B (KEIK)
Fri 02:39:14 PM 39.8535 -105.7905 262° West 415 478 24,500 1,636 Climbing FlightAware ADS-B (KEIK)
Fri 02:40:02 PM 39.8442 -105.9118 264° West 422 486 25,800 1,519 Climbing FlightAware ADS-B (KEIK)
Fri 02:40:33 PM 39.8376 -105.9899 264° West 432 497 26,500 1,343 Climbing FlightAware ADS-B (KEIK)
Fri 02:41:09 PM 39.8293 -106.0842 263° West 436 502 27,300 1,304 Climbing FlightAware ADS-B (KEIK)
Fri 02:41:42 PM 39.8229 -106.1543 263° West 442 509 28,000 1,184 Climbing FlightAware ADS-B (KEIK)
Fri 02:42:25 PM 39.8110 -106.2860 263° West 452 520 28,800 1,224 Climbing FlightAware ADS-B
Fri 02:42:31 PM 39.8097 -106.3009 263° West 453 521 29,000 1,077 Climbing FlightAware ADS-B (KEIK)
Fri 02:43:04 PM 39.8016 -106.3893 263° West 458 527 29,500 818 Climbing FlightAware ADS-B (KEIK)
Fri 02:43:37 PM 39.7930 -106.4830 263° West 468 539 29,900 837 Climbing FlightAware ADS-B
Fri 02:43:47 PM 39.7909 -106.5101 264° West 468 539 30,100 1,000 Climbing FlightAware ADS-B (KEIK)
Fri 02:44:43 PM 39.7830 -106.6680 266° West 476 548 31,000 1,000 Climbing FlightAware ADS-B
Fri 02:44:53 PM 39.7811 -106.6999 266° West 478 550 31,200 1,100 Climbing FlightAware ADS-B (KEIK)
Fri 02:45:43 PM 39.7747 -106.8409 267° West 481 554 32,100 1,172 Climbing FlightAware ADS-B (KEIK)
Fri 02:46:20 PM 39.7698 -106.9470 267° West 478 550 32,900 1,343 Climbing FlightAware ADS-B
Fri 02:46:50 PM 39.7656 -107.0309 266° West 477 549 33,600 1,377 Climbing FlightAware ADS-B
Fri 02:47:21 PM 39.7614 -107.1210 267° West 474 545 34,300 1,377 Climbing FlightAware ADS-B
Fri 02:47:51 PM 39.7572 -107.2056 266° West 469 540 35,000 1,200 Climbing FlightAware ADS-B
Fri 02:48:21 PM 39.7532 -107.2861 266° West 468 539 35,500 667 Climbing FlightAware ADS-B
Fri 02:48:54 PM 39.7484 -107.3837 266° West 474 545 35,700 441 Climbing FlightAware ADS-B
Fri 02:49:29 PM 39.7440 -107.4699 266° West 476 548 36,000 277 Climbing FlightAware ADS-B
Fri 02:49:59 PM 39.7394 -107.5584 266° West 477 549 36,000  Level FlightAware ADS-B
Fri 02:50:30 PM 39.7347 -107.6468 266° West 476 548 36,000  Level FlightAware ADS-B
Fri 02:51:00 PM 39.7298 -107.7395 266° West 475 547 36,000  Level FlightAware ADS-B
Fri 02:51:32 PM 39.7247 -107.8317 266° West 472 543 36,000  Level FlightAware ADS-B
Fri 02:52:02 PM 39.7206 -107.9075 266° West 474 545 36,000  Level FlightAware ADS-B
Fri 02:52:34 PM 39.7149 -108.0091 266° West 475 547 36,000  Level FlightAware ADS-B
Fri 02:53:04 PM 39.7107 -108.0850 266° West 472 543 36,000  Level FlightAware ADS-B
Fri 02:53:38 PM 39.7061 -108.1644 266° West 472 543 36,000  Level FlightAware ADS-B
Fri 02:54:09 PM 39.6996 -108.2778 266° West 474 545 36,000  Level FlightAware ADS-B (KGUC)
Fri 02:54:46 PM 39.6939 -108.3740 266° West 478 550 36,000  Level FlightAware ADS-B
Fri 02:55:17 PM 39.6882 -108.4690 266° West 480 552 36,000  Level FlightAware ADS-B
Fri 02:55:56 PM 39.6822 -108.5661 265° West 478 550 36,000  Level FlightAware ADS-B
Fri 02:56:26 PM 39.6765 -108.6597 265° West 479 551 36,000  Level FlightAware ADS-B
Fri 02:56:56 PM 39.6708 -108.7518 265° West 481 554 36,000  Level FlightAware ADS-B
Fri 02:57:29 PM 39.6650 -108.8438 265° West 483 556 36,000  Level FlightAware ADS-B
Fri 02:58:02 PM 39.6593 -108.9319 265° West 484 557 36,000  Level FlightAware ADS-B
Fri 02:58:32 PM 39.6533 -109.0273 265° West 485 558 36,000  Level FlightAware ADS-B
Fri 02:59:11 PM 39.6455 -109.1433 265° West 484 557 36,000  Level FlightAware ADS-B
Fri 02:59:42 PM 39.6396 -109.2324 265° West 486 559 36,000  Level FlightAware ADS-B
Fri 03:00:13 PM 39.6339 -109.3182 265° West 487 560 36,000  Level FlightAware ADS-B
Fri 03:00:45 PM 39.6280 -109.4049 265° West 489 563 36,000  Level FlightAware ADS-B
Fri 03:01:17 PM 39.6216 -109.4978 265° West 486 559 36,000  Level FlightAware ADS-B
Fri 03:01:48 PM 39.6178 -109.5529 265° West 485 558 36,000  Level FlightAware ADS-B
Fri 03:02:28 PM 39.6066 -109.7123 265° West 483 556 36,000  Level FlightAware ADS-B
Fri 03:02:59 PM 39.6009 -109.7923 265° West 484 557 36,000  Level FlightAware ADS-B
Fri 03:03:29 PM 39.5938 -109.8905 265° West 485 558 36,000  Level FlightAware ADS-B
Fri 03:04:01 PM 39.5873 -109.9787 265° West 483 556 36,000  Level FlightAware ADS-B
Fri 03:04:31 PM 39.5806 -110.0682 265° West 481 554 36,000  Level FlightAware ADS-B
Fri 03:05:03 PM 39.5745 -110.1505 264° West 479 551 36,000  Level FlightAware ADS-B
Fri 03:05:40 PM 39.5661 -110.2633 265° West 478 550 36,000  Level FlightAware ADS-B (KGUC)
Fri 03:06:12 PM 39.5594 -110.3509 264° West 476 548 36,000  Level FlightAware ADS-B
Fri 03:06:44 PM 39.5525 -110.4404 264° West 476 548 36,000  Level FlightAware ADS-B
Fri 03:07:14 PM 39.5455 -110.5294 264° West 477 549 36,000  Level FlightAware ADS-B
Fri 03:07:44 PM 39.5387 -110.6165 264° West 480 552 36,000  Level FlightAware ADS-B
Fri 03:08:14 PM 39.5319 -110.7030 264° West 483 556 36,000  Level FlightAware ADS-B
Fri 03:08:54 PM 39.5228 -110.8165 264° West 478 550 36,000  Level FlightAware ADS-B
Fri 03:09:24 PM 39.5163 -110.8955 264° West 480 552 36,000  Level FlightAware ADS-B
Fri 03:09:54 PM 39.5088 -110.9868 264° West 482 555 36,000  Level FlightAware ADS-B
Fri 03:10:26 PM 39.5023 -111.0651 264° West 481 554 36,000  Level FlightAware ADS-B
Fri 03:10:53 PM 39.4949 -111.1550 264° West 481 554 36,000  Level FlightAware ADS-B
Fri 03:10:56 PM 39.4942 -111.1621 263° West 481 554 36,000  Level FlightAware ADS-B
Fri 03:11:23 PM 39.4876 -111.2410 264° West 481 554 36,000  Level FlightAware ADS-B
Fri 03:11:28 PM 39.4866 -111.2527 264° West 482 555 36,000  Level FlightAware ADS-B
Fri 03:11:56 PM 39.4798 -111.3340 264° West 483 556 36,000  Level FlightAware ADS-B
Fri 03:11:58 PM 39.4794 -111.3386 263° West 483 556 36,000  Level FlightAware ADS-B
Fri 03:12:26 PM 39.4721 -111.4230 264° West 484 557 36,000  Level FlightAware ADS-B
Fri 03:12:29 PM 39.4719 -111.4258 265° West 484 557 36,000  Level FlightAware ADS-B
Fri 03:12:57 PM 39.4646 -111.5100 264° West 483 556 36,000  Level FlightAware ADS-B
Fri 03:13:06 PM 39.4624 -111.5353 264° West 482 555 36,000  Level FlightAware ADS-B
Fri 03:13:27 PM 39.4569 -111.5980 264° West 482 555 36,000  Level FlightAware ADS-B
Fri 03:13:47 PM 39.4521 -111.6519 263° West 482 555 36,000  Level FlightAware ADS-B
Fri 03:13:59 PM 39.4490 -111.6870 263° West 483 556 36,000  Level FlightAware ADS-B
Fri 03:14:28 PM 39.4428 -111.7573 263° West 483 556 36,000  Level FlightAware ADS-B
Fri 03:14:30 PM 39.4410 -111.7770 263° West 483 556 36,000  Level FlightAware ADS-B
Fri 03:15:07 PM 39.4315 -111.8830 263° West 482 555 36,000  Level FlightAware ADS-B
Fri 03:15:09 PM 39.4315 -111.8830 38° Northeast 482 555 36,000  Level FlightAware ADS-B
Fri 03:15:38 PM 39.4236 -111.9710 263° West 482 555 36,000  Level FlightAware ADS-B
Fri 03:15:47 PM 39.4213 -111.9957 263° West 482 555 36,000  Level FlightAware ADS-B
Fri 03:16:08 PM 39.4158 -112.0560 263° West 481 554 36,000  Level FlightAware ADS-B
Fri 03:16:17 PM 39.4134 -112.0824 263° West 481 554 36,000  Level FlightAware ADS-B
Fri 03:16:38 PM 39.4079 -112.1420 263° West 480 552 36,000  Level FlightAware ADS-B
Fri 03:16:49 PM 39.4057 -112.1655 263° West 480 552 36,000  Level FlightAware ADS-B
Fri 03:17:09 PM 39.3996 -112.2310 263° West 480 552 36,000  Level FlightAware ADS-B
Fri 03:17:19 PM 39.3975 -112.2536 263° West 479 551 36,000  Level FlightAware ADS-B
Fri 03:17:43 PM 39.3907 -112.3260 263° West 479 551 36,000  Level FlightAware ADS-B
Fri 03:17:59 PM 39.3880 -112.3557 263° West 480 552 36,000  Level FlightAware ADS-B
Fri 03:18:13 PM 39.3826 -112.4120 263° West 480 552 36,000  Level FlightAware ADS-B
Fri 03:18:40 PM 39.3766 -112.4760 263° West 479 551 36,000  Level FlightAware ADS-B
Fri 03:18:43 PM 39.3746 -112.4970 263° West 479 551 36,000  Level FlightAware ADS-B
Fri 03:19:14 PM 39.3662 -112.5840 263° West 477 549 36,000  Level FlightAware ADS-B
Fri 03:19:20 PM 39.3646 -112.6003 263° West 476 548 36,000  Level FlightAware ADS-B
Fri 03:19:44 PM 39.3579 -112.6700 263° West 475 547 36,000  Level FlightAware ADS-B
Fri 03:19:55 PM 39.3549 -112.7002 263° West 474 545 36,000  Level FlightAware ADS-B
Fri 03:20:15 PM 39.3495 -112.7560 263° West 475 547 36,000  Level FlightAware ADS-B
Fri 03:20:46 PM 39.3417 -112.8350 263° West 477 549 36,000  Level FlightAware ADS-B
Fri 03:20:48 PM 39.3404 -112.8490 263° West 477 549 36,000  Level FlightAware ADS-B
Fri 03:21:16 PM 39.3335 -112.9178 263° West 477 549 36,000  Level FlightAware ADS-B
Fri 03:21:19 PM 39.3318 -112.9360 263° West 477 549 36,000  Level FlightAware ADS-B
Fri 03:21:49 PM 39.3248 -113.0052 263° West 479 551 36,000  Level FlightAware ADS-B
Fri 03:21:51 PM 39.3228 -113.0260 263° West 479 551 36,000  Level FlightAware ADS-B
Fri 03:22:20 PM 39.3148 -113.1054 263° West 479 551 36,000  Level FlightAware ADS-B
Fri 03:22:44 PM 39.3075 -113.1760 262° West 479 551 36,000  Level FlightAware ADS-B
Fri 03:22:50 PM 39.3077 -113.1750 76° East 480 552 36,000  Level FlightAware ADS-B
Fri 03:23:30 PM 39.2937 -113.3051 262° West 484 557 36,000  Level FlightAware ADS-B
Fri 03:24:10 PM 39.2790 -113.4080 260° West 482 555 36,000  Level FlightAware ADS-B
Fri 03:24:23 PM 39.2732 -113.4491 260° West 484 557 36,000  Level FlightAware ADS-B
Fri 03:24:53 PM 39.2614 -113.5323 260° West 483 556 36,000  Level FlightAware ADS-B
Fri 03:25:23 PM 39.2485 -113.6251 260° West 483 556 36,000  Level FlightAware ADS-B
Fri 03:25:54 PM 39.2363 -113.7131 260° West 481 554 36,000  Level FlightAware ADS-B
Fri 03:26:35 PM 39.2200 -113.8280 260° West 481 554 36,000  Level FlightAware ADS-B
Fri 03:26:57 PM 39.2114 -113.8925 260° West 481 554 36,000  Level FlightAware ADS-B
Fri 03:27:31 PM 39.2000 -113.9720 260° West 480 552 36,000  Level FlightAware ADS-B
Fri 03:28:08 PM 39.1860 -114.0610 259° West 480 552 36,000  Level FlightAware ADS-B
Fri 03:28:44 PM 39.1730 -114.1470 259° West 480 552 36,000  Level FlightAware ADS-B
Fri 03:29:20 PM 39.1600 -114.2330 259° West 480 552 36,000  Level FlightAware ADS-B
Fri 03:29:56 PM 39.1470 -114.3190 259° West 480 552 36,000  Level FlightAware ADS-B
Fri 03:30:35 PM 39.1330 -114.4120 259° West 480 552 36,000  Level FlightAware ADS-B
Fri 03:31:12 PM 39.1200 -114.5000 259° West 480 552 36,000  Level FlightAware ADS-B
Fri 03:31:48 PM 39.1070 -114.5860 259° West 480 552 36,000  Level FlightAware ADS-B
Fri 03:32:24 PM 39.0940 -114.6720 259° West 480 552 36,000  Level FlightAware ADS-B
Fri 03:33:01 PM 39.0810 -114.7600 259° West 480 552 36,000  Level FlightAware ADS-B
Fri 03:33:35 PM 39.0680 -114.8420 258° West 480 552 36,000  Level FlightAware ADS-B
Fri 03:34:11 PM 39.0550 -114.9270 259° West 480 552 36,000  Level FlightAware ADS-B
Fri 03:34:48 PM 39.0420 -115.0160 259° West 480 552 36,000  Level FlightAware ADS-B
Fri 03:35:24 PM 39.0290 -115.1020 259° West 480 552 36,000  Level FlightAware ADS-B
Fri 03:36:00 PM 39.0160 -115.1870 259° West 480 552 36,000  Level FlightAware ADS-B
Fri 03:36:36 PM 39.0030 -115.2730 259° West 480 552 36,000  Level FlightAware ADS-B
Fri 03:38:01 PM 38.9344 -115.7417 259° West 484 557 36,000  Level Salt Lake Center
Fri 03:39:03 PM 38.9072 -115.9100 258° West 482 555 36,000  Level Salt Lake Center
Fri 03:40:06 PM 38.8758 -116.1114 259° West 481 554 36,000  Level Salt Lake Center
Fri 03:41:08 PM 38.8475 -116.2797 258° West 483 556 36,000  Level Salt Lake Center
Fri 03:42:10 PM 38.8214 -116.4486 259° West 483 556 36,000  Level Salt Lake Center
Fri 03:43:12 PM 38.7936 -116.6169 258° West 485 558 36,000  Level Salt Lake Center
Fri 03:44:14 PM 38.7650 -116.7847 258° West 483 556 36,000  Level Salt Lake Center
Fri 03:45:16 PM 38.7367 -116.9525 258° West 484 557 36,000  Level Salt Lake Center
Fri 03:51:25 PM 38.5530 -118.0240 258° West 483 556 36,000  Level FlightAware ADS-B
Fri 03:51:59 PM 38.5360 -118.1190 257° West 483 556 36,000  Level FlightAware ADS-B
Fri 03:52:32 PM 38.5200 -118.2110 257° West 483 556 36,000  Level FlightAware ADS-B
Fri 03:53:06 PM 38.5030 -118.3060 257° West 483 556 36,000  Level FlightAware ADS-B
Fri 03:53:42 PM 38.4850 -118.4030 257° West 484 557 36,000  Level FlightAware ADS-B
Fri 03:54:17 PM 38.4680 -118.5000 257° West 484 557 36,000  Level FlightAware ADS-B
Fri 03:54:55 PM 38.4490 -118.6040 257° West 483 556 36,000  Level FlightAware ADS-B
Fri 03:55:26 PM 38.4330 -118.6900 257° West 482 555 36,000  Level FlightAware ADS-B
Fri 03:56:05 PM 38.4150 -118.7840 256° West 482 555 36,000  Level FlightAware ADS-B
Fri 03:56:44 PM 38.3929 -118.9085 257° West 483 556 36,000  Level FlightAware ADS-B
Fri 03:57:24 PM 38.3625 -119.0101 249° West 490 564 36,000  Level FlightAware ADS-B
Fri 03:57:54 PM 38.3329 -119.0930 246° West 490 564 36,000  Level FlightAware ADS-B
Fri 03:58:38 PM 38.2936 -119.2036 246° West 490 564 36,000  Level FlightAware ADS-B
Fri 03:59:10 PM 38.2616 -119.2944 246° West 490 564 36,000  Level FlightAware ADS-B
Fri 03:59:59 PM 38.2240 -119.4230 250° West 485 558 36,000  Level FlightAware ADS-B
Fri 04:00:15 PM 38.2286 -119.3992 76° East 487 560 36,000  Level FlightAware ADS-B
Fri 04:01:05 PM 38.2110 -119.6090 264° West 480 552 36,000  Level FlightAware ADS-B
Fri 04:01:40 PM 38.2080 -119.7080 268° West 481 554 36,000  Level FlightAware ADS-B
Fri 04:02:02 PM 38.2057 -119.7739 267° West 481 554 36,000  Level FlightAware ADS-B
Fri 04:02:47 PM 38.2010 -119.8940 267° West 480 552 36,000  Level FlightAware ADS-B
Fri 04:03:22 PM 38.1980 -119.9950 268° West 480 552 36,000  Level FlightAware ADS-B
Fri 04:03:42 PM 38.1955 -120.0530 267° West 481 554 36,000  Level FlightAware ADS-B
Fri 04:04:17 PM 38.1917 -120.1520 267° West 481 554 36,000  Level FlightAware ADS-B
Fri 04:05:11 PM 38.1860 -120.3030 267° West 483 556 36,000  Level FlightAware ADS-B
Fri 04:05:44 PM 38.1820 -120.3970 267° West 484 557 36,000  Level FlightAware ADS-B
Fri 04:06:20 PM 38.1780 -120.4880 267° West 485 558 36,000  Level FlightAware ADS-B
Fri 04:06:54 PM 38.1740 -120.5950 267° West 486 559 36,000  Level FlightAware ADS-B
Fri 04:07:18 PM 38.1708 -120.6640 267° West 487 560 36,000  Level FlightAware ADS-B
Fri 04:07:36 PM 38.1695 -120.6933 267° West 487 560 36,000  Level FlightAware ADS-B
Fri 04:07:48 PM 38.1671 -120.7500 267° West 487 560 36,000  Level FlightAware ADS-B
Fri 04:08:19 PM 38.1632 -120.8370 267° West 487 560 36,000  Level FlightAware ADS-B
Fri 04:08:49 PM 38.1593 -120.9230 267° West 486 559 36,000  Level FlightAware ADS-B
Fri 04:09:19 PM 38.1553 -121.0100 267° West 485 558 36,000  Level FlightAware ADS-B
Fri 04:09:50 PM 38.1513 -121.0970 267° West 485 558 36,000  Level FlightAware ADS-B
Fri 04:10:23 PM 38.1470 -121.1890 267° West 486 559 36,000  Level FlightAware ADS-B
Fri 04:10:53 PM 38.1428 -121.2770 267° West 487 560 36,000  Level FlightAware ADS-B
Fri 04:11:33 PM 38.1380 -121.3730 266° West 485 558 36,000  Level FlightAware ADS-B
Fri 04:11:55 PM 38.1342 -121.4520 267° West 487 560 36,000  Level FlightAware ADS-B
Fri 04:12:25 PM 38.1298 -121.5380 266° West 485 558 36,000  Level FlightAware ADS-B
Fri 04:12:55 PM 38.1255 -121.6230 266° West 486 559 36,000  Level FlightAware ADS-B
Fri 04:13:26 PM 38.1210 -121.7100 266° West 486 559 36,000  Level FlightAware ADS-B
Fri 04:13:59 PM 38.1161 -121.8050 266° West 485 558 36,000  Level FlightAware ADS-B
Fri 04:14:38 PM 38.1102 -121.9140 266° West 484 557 36,000  Level FlightAware ADS-B
Fri 04:15:09 PM 38.1055 -122.0020 266° West 485 558 36,000  Level FlightAware ADS-B
Fri 04:15:41 PM 38.1006 -122.0920 266° West 485 558 36,000  Level FlightAware ADS-B
Fri 04:16:14 PM 38.0950 -122.1850 266° West 484 557 36,000  Level FlightAware ADS-B
Fri 04:16:47 PM 38.0900 -122.2740 266° West 484 557 36,000  Level FlightAware ADS-B
Fri 04:17:32 PM 38.0830 -122.4040 266° West 483 556 36,000  Level FlightAware ADS-B
Fri 04:18:04 PM 38.0770 -122.4960 265° West 483 556 36,000  Level FlightAware ADS-B
Fri 04:18:42 PM 38.0710 -122.6040 266° West 483 556 36,000  Level FlightAware ADS-B
Fri 04:19:12 PM 38.0660 -122.6870 266° West 483 556 36,000  Level FlightAware ADS-B
Fri 04:19:52 PM 38.0590 -122.8010 266° West 483 556 36,000  Level FlightAware ADS-B
Fri 04:20:24 PM 38.0540 -122.8910 266° West 484 557 36,000  Level FlightAware ADS-B
Fri 04:21:00 PM 38.0490 -122.9920 266° West 484 557 36,000  Level FlightAware ADS-B
Fri 04:21:34 PM 38.0510 -123.0890 272° West 483 556 36,000  Level FlightAware ADS-B
Fri 04:22:08 PM 38.0550 -123.1800 273° West 484 557 36,000  Level FlightAware ADS-B
Fri 04:22:51 PM 38.0590 -123.2940 273° West 484 557 36,000  Level FlightAware ADS-B
Fri 04:23:24 PM 38.0630 -123.3970 273° West 485 558 36,000  Level FlightAware ADS-B
Fri 04:23:57 PM 38.0660 -123.4900 272° West 485 558 36,000  Level FlightAware ADS-B
Fri 04:24:37 PM 38.0700 -123.6040 273° West 486 559 36,000  Level FlightAware ADS-B
Fri 04:25:14 PM 38.0730 -123.6990 272° West 485 558 36,000  Level FlightAware ADS-B
Fri 04:25:54 PM 38.0750 -123.7960 272° West 485 558 36,000  Level FlightAware ADS-B
Fri 04:26:33 PM 38.0780 -123.8900 272° West 485 558 36,000  Level FlightAware ADS-B
Fri 04:27:10 PM 38.0810 -123.9800 272° West 485 558 36,000  Level FlightAware ADS-B
Fri 04:27:46 PM 38.0830 -124.0670 272° West 485 558 36,000  Level FlightAware ADS-B
Fri 04:28:24 PM 38.0850 -124.1590 272° West 485 558 36,000  Level FlightAware ADS-B
Fri 04:29:02 PM 38.0880 -124.2510 272° West 485 558 36,000  Level FlightAware ADS-B
Fri 04:29:38 PM 38.0900 -124.3380 272° West 485 558 36,000  Level FlightAware ADS-B
Fri 04:30:14 PM 38.0930 -124.4260 273° West 485 558 36,000  Level FlightAware ADS-B
Fri 04:30:50 PM 38.0950 -124.5130 272° West 485 558 36,000  Level FlightAware ADS-B
Fri 04:31:24 PM 38.0970 -124.5950 272° West 485 558 36,000  Level FlightAware ADS-B
Fri 04:32:00 PM 38.1000 -124.6820 273° West 485 558 36,000  Level FlightAware ADS-B
Fri 04:32:37 PM 38.1020 -124.7720 272° West 485 558 36,000  Level FlightAware ADS-B
Fri 04:33:15 PM 38.1050 -124.8640 272° West 485 558 36,000  Level FlightAware ADS-B
Fri 04:33:52 PM 38.1070 -124.9540 272° West 485 558 36,000  Level FlightAware ADS-B
Fri 04:34:28 PM 38.1100 -125.0410 273° West 485 558 36,000  Level FlightAware ADS-B
Fri 04:35:04 PM 38.1120 -125.1280 272° West 485 558 36,000  Level FlightAware ADS-B
Fri 04:35:43 PM 38.1192 -125.4914 272° West 488 562 36,000 -59 Level Oakland Center
Fri 04:36:45 PM 38.1211 -125.6639 271° West 487 560 35,900 -48 Descending Oakland Center
Fri 04:37:47 PM 38.1250 -125.8372 272° West 492 566 35,900  Level Oakland Center
Fri 04:38:49 PM 38.1261 -126.0458 270° West 494 568 35,900 48 Level Oakland Center
Fri 04:39:51 PM 38.1275 -126.2186 271° West 491 565 36,000  Climbing Oakland Center
Fri 04:40:52 PM 38.1286 -126.3844 271° West 493 567 35,900  Descending Oakland Center
Fri 04:41:54 PM 38.1294 -126.5592 270° West 495 570 36,000 48 Climbing Oakland Center
Fri 04:42:56 PM 38.1308 -126.7336 271° West 495 570 36,000 -48 Level Oakland Center
Fri 04:43:58 PM 38.1314 -126.9417 270° West 493 567 35,900  Descending Oakland Center
Fri 04:44:31 PM 38.1333 -127.0000 288° West 489 563 36,000 12 Climbing Oakland Oceanic (ODAPS)
Fri 04:52:00 PM 38.4539 -128.3261 287° West 489 563 36,000  Level FlightAware Transoceanic
Fri 04:52:19 PM 38.4500 -128.3000 287° West 493 567 36,000  Level Oakland Oceanic (ODAPS)
Fri 04:53:00 PM 38.4929 -128.4927 287° West 489 563 36,000  Level FlightAware Transoceanic
Fri 04:54:00 PM 38.5317 -128.6595 286° West 489 563 36,000  Level FlightAware Transoceanic
Fri 04:55:00 PM 38.5702 -128.8264 286° West 489 563 36,000  Level FlightAware Transoceanic
Fri 04:56:00 PM 38.6085 -128.9935 286° West 489 563 36,000  Level FlightAware Transoceanic
Fri 04:57:00 PM 38.6466 -129.1608 286° West 489 563 36,000  Level FlightAware Transoceanic
Fri 04:58:00 PM 38.6829 -129.3178 286° West 493 567 36,000  Level FlightAware Transoceanic
Fri 04:59:00 PM 38.7209 -129.4881 286° West 493 567 36,000  Level FlightAware Transoceanic
Fri 05:00:00 PM 38.7586 -129.6586 286° West 493 567 36,000  Level FlightAware Transoceanic
Fri 05:01:00 PM 38.7961 -129.8292 286° West 493 567 36,000  Level FlightAware Transoceanic
Fri 05:02:00 PM 38.8333 -130.0000 274° West 493 567 36,000  Level FlightAware Transoceanic
Fri 05:02:35 PM 38.8333 -130.0000 274° West 483 556 36,000  Level Oakland Oceanic (ODAPS)
Fri 05:03:00 PM 38.8434 -130.1717 274° West 493 567 36,000  Level FlightAware Transoceanic
Fri 05:04:00 PM 38.8533 -130.3434 274° West 493 567 36,000  Level FlightAware Transoceanic
Fri 05:05:00 PM 38.8629 -130.5152 274° West 493 567 36,000  Level FlightAware Transoceanic
Fri 05:06:00 PM 38.8722 -130.6870 274° West 493 567 36,000  Level FlightAware Transoceanic
Fri 05:06:10 PM 38.8667 -130.6167 274° West 481 554 36,000  Level Oakland Oceanic (ODAPS)
Fri 05:07:00 PM 38.8813 -130.8589 274° West 493 567 36,000  Level FlightAware Transoceanic
Fri 05:08:00 PM 38.8901 -131.0308 274° West 483 556 36,000  Level FlightAware Transoceanic
Fri 05:09:00 PM 38.8987 -131.2028 274° West 483 556 36,000  Level FlightAware Transoceanic
Fri 05:10:00 PM 38.9070 -131.3748 274° West 483 556 36,000  Level FlightAware Transoceanic
Fri 05:11:00 PM 38.9151 -131.5468 273° West 483 556 36,000  Level FlightAware Transoceanic
Fri 05:12:00 PM 38.9177 -131.6373 273° West 481 554 36,000  Level FlightAware Transoceanic
Fri 05:13:00 PM 38.9254 -131.8076 273° West 481 554 36,000  Level FlightAware Transoceanic
Fri 05:13:09 PM 38.9333 -131.7833 273° West 477 549 36,000  Level Oakland Oceanic (ODAPS)
Fri 05:14:00 PM 38.9327 -131.9779 273° West 481 554 36,000  Level FlightAware Transoceanic
Fri 05:15:00 PM 38.9399 -132.1482 273° West 481 554 36,000  Level FlightAware Transoceanic
Fri 05:16:00 PM 38.9468 -132.3185 273° West 481 554 36,000  Level FlightAware Transoceanic
Fri 05:17:00 PM 38.9534 -132.4889 273° West 481 554 36,000  Level FlightAware Transoceanic
Fri 05:18:00 PM 38.9599 -132.6593 273° West 481 554 36,000  Level FlightAware Transoceanic
Fri 05:19:00 PM 38.9732 -132.8087 273° West 477 549 36,000  Level FlightAware Transoceanic
Fri 05:20:00 PM 38.9790 -132.9796 272° West 477 549 36,000  Level FlightAware Transoceanic
Fri 05:20:02 PM 38.9667 -132.9333 273° West 477 549 36,000  Level Oakland Oceanic (ODAPS)
Fri 05:21:00 PM 38.9845 -133.1507 272° West 477 549 36,000  Level FlightAware Transoceanic
Fri 05:22:00 PM 38.9897 -133.3217 272° West 477 549 36,000  Level FlightAware Transoceanic
Fri 05:23:00 PM 38.9948 -133.4928 272° West 477 549 36,000  Level FlightAware Transoceanic
Fri 05:24:00 PM 38.9995 -133.6639 272° West 477 549 36,000  Level FlightAware Transoceanic
Fri 05:25:00 PM 39.0041 -133.8350 272° West 477 549 36,000  Level FlightAware Transoceanic
Fri 05:26:00 PM 38.9982 -133.9664 272° West 477 549 36,000  Level FlightAware Transoceanic
Fri 05:27:00 PM 39.0025 -134.1387 272° West 477 549 36,000  Level FlightAware Transoceanic
Fri 05:28:00 PM 39.0066 -134.3110 272° West 477 549 36,000  Level FlightAware Transoceanic
Fri 05:29:00 PM 39.0105 -134.4833 272° West 477 549 36,000  Level FlightAware Transoceanic
Fri 05:30:00 PM 39.0141 -134.6556 271° West 477 549 36,000  Level FlightAware Transoceanic
Fri 05:31:00 PM 39.0175 -134.8280 271° West 477 549 36,000  Level FlightAware Transoceanic
Fri 05:32:00 PM 39.0206 -135.0003 271° West 477 549 36,000  Level FlightAware Transoceanic
Fri 05:33:00 PM 39.0234 -135.1727 271° West 477 549 36,000 1,043 Level FlightAware Transoceanic
Fri 05:33:55 PM 39.0333 -135.2833 271° West 479 551 38,000  Climbing Oakland Oceanic (ODAPS)
Fri 05:34:00 PM 39.0260 -135.3451 271° West 477 549 36,000 -1,846 Descending FlightAware Transoceanic
Fri 05:35:00 PM 39.0283 -135.5175 271° West 477 549 36,000  Level FlightAware Transoceanic
Fri 05:36:00 PM 39.0304 -135.6899 271° West 477 549 36,000  Level FlightAware Transoceanic
Fri 05:37:00 PM 39.0322 -135.8623 271° West 477 549 36,000  Level FlightAware Transoceanic
Fri 05:38:00 PM 39.0338 -136.0347 271° West 477 549 36,000  Level FlightAware Transoceanic
Fri 05:39:00 PM 39.0351 -136.2072 271° West 477 549 36,000 1,000 Level FlightAware Transoceanic
Fri 05:40:00 PM 39.0424 -136.3317 270° West 479 551 38,000 1,000 Climbing FlightAware Transoceanic
Fri 05:41:00 PM 39.0429 -136.5064 270° West 479 551 38,000  Level FlightAware Transoceanic
Fri 05:42:00 PM 39.0433 -136.6812 270° West 479 551 38,000  Level FlightAware Transoceanic
Fri 05:43:00 PM 39.0433 -136.8559 270° West 479 551 38,000  Level FlightAware Transoceanic
Fri 05:44:00 PM 39.0431 -137.0306 270° West 479 551 38,000  Level FlightAware Transoceanic
Fri 05:45:00 PM 39.0427 -137.2054 270° West 479 551 38,000  Level FlightAware Transoceanic
Fri 05:46:00 PM 39.0420 -137.3801 270° West 479 551 38,000  Level FlightAware Transoceanic
Fri 05:47:00 PM 39.0410 -137.5549 270° West 479 551 38,000  Level FlightAware Transoceanic
Fri 05:47:49 PM 39.0333 -137.6667 270° West 481 554 38,000  Level Oakland Oceanic (ODAPS)
Fri 05:48:00 PM 39.0398 -137.7296 269° West 479 551 38,000  Level FlightAware Transoceanic
Fri 05:49:00 PM 39.0383 -137.9043 269° West 479 551 38,000  Level FlightAware Transoceanic
Fri 05:50:00 PM 39.0365 -138.0790 269° West 479 551 38,000  Level FlightAware Transoceanic
Fri 05:51:00 PM 39.0345 -138.2537 269° West 479 551 38,000  Level FlightAware Transoceanic
Fri 05:52:00 PM 39.0322 -138.4284 269° West 479 551 38,000  Level FlightAware Transoceanic
Fri 05:53:00 PM 39.0297 -138.6031 269° West 479 551 38,000  Level FlightAware Transoceanic
Fri 05:54:00 PM 39.0225 -138.8336 269° West 481 554 38,000  Level FlightAware Transoceanic
Fri 05:55:00 PM 39.0200 -139.0003 269° West 481 554 38,000  Level FlightAware Transoceanic
Fri 05:56:00 PM 39.0172 -139.1669 269° West 481 554 38,000  Level FlightAware Transoceanic
Fri 05:57:00 PM 39.0143 -139.3336 269° West 481 554 38,000  Level FlightAware Transoceanic
Fri 05:58:00 PM 39.0111 -139.5002 269° West 481 554 38,000  Level FlightAware Transoceanic
Fri 05:59:00 PM 39.0076 -139.6668 268° West 481 554 38,000  Level FlightAware Transoceanic
Fri 06:00:00 PM 39.0039 -139.8334 268° West 481 554 38,000  Level FlightAware Transoceanic
Fri 06:01:00 PM 39.0000 -140.0000 273° West 481 554 38,000  Level FlightAware Transoceanic
Fri 06:01:28 PM 39.0000 -140.0000 273° West 484 557 38,000  Level Oakland Oceanic (ODAPS)
Fri 06:01:46 PM 39.0000 -140.0500 273° West 487 560 38,000  Level Oakland Oceanic (ODAPS)
Fri 06:02:00 PM 39.0075 -140.1782 273° West 481 554 38,000  Level FlightAware Transoceanic
Fri 06:03:00 PM 39.0147 -140.3565 273° West 481 554 38,000  Level FlightAware Transoceanic
Fri 06:04:00 PM 39.0217 -140.5348 273° West 481 554 38,000  Level FlightAware Transoceanic
Fri 06:05:00 PM 39.0283 -140.7131 273° West 481 554 38,000  Level FlightAware Transoceanic
Fri 06:06:00 PM 39.0347 -140.8915 273° West 481 554 38,000  Level FlightAware Transoceanic
Fri 06:07:00 PM 39.0396 -141.0330 273° West 484 557 38,000  Level FlightAware Transoceanic
Fri 06:08:00 PM 39.0449 -141.2493 272° West 487 560 38,000  Level FlightAware Transoceanic
Fri 06:09:00 PM 39.0503 -141.4207 272° West 487 560 38,000  Level FlightAware Transoceanic
Fri 06:10:00 PM 39.0555 -141.5922 272° West 487 560 38,000  Level FlightAware Transoceanic
Fri 06:11:00 PM 39.0604 -141.7637 272° West 487 560 38,000  Level FlightAware Transoceanic
Fri 06:12:00 PM 39.0650 -141.9352 272° West 487 560 38,000  Level FlightAware Transoceanic
Fri 06:13:00 PM 39.0694 -142.1067 272° West 487 560 38,000  Level FlightAware Transoceanic
Fri 06:14:00 PM 39.0736 -142.2783 272° West 487 560 38,000  Level FlightAware Transoceanic
Fri 06:15:00 PM 39.0775 -142.4498 272° West 487 560 38,000  Level FlightAware Transoceanic
Fri 06:15:32 PM 39.0833 -142.4667 272° West 489 563 38,000  Level Oakland Oceanic (ODAPS)
Fri 06:16:00 PM 39.0811 -142.6214 272° West 487 560 38,000  Level FlightAware Transoceanic
Fri 06:17:00 PM 39.0845 -142.7930 271° West 487 560 38,000  Level FlightAware Transoceanic
Fri 06:18:00 PM 39.0877 -142.9647 271° West 487 560 38,000  Level FlightAware Transoceanic
Fri 06:19:00 PM 39.0906 -143.1363 271° West 487 560 38,000  Level FlightAware Transoceanic
Fri 06:20:00 PM 39.0932 -143.3080 271° West 487 560 38,000  Level FlightAware Transoceanic
Fri 06:21:00 PM 39.1008 -143.5181 271° West 489 563 38,000  Level FlightAware Transoceanic
Fri 06:22:00 PM 39.1028 -143.6934 271° West 489 563 38,000  Level FlightAware Transoceanic
Fri 06:23:00 PM 39.1046 -143.8687 271° West 489 563 38,000  Level FlightAware Transoceanic
Fri 06:24:00 PM 39.1060 -144.0441 271° West 489 563 38,000  Level FlightAware Transoceanic
Fri 06:25:00 PM 39.1073 -144.2194 270° West 489 563 38,000  Level FlightAware Transoceanic
Fri 06:26:00 PM 39.1082 -144.3947 270° West 489 563 38,000  Level FlightAware Transoceanic
Fri 06:27:00 PM 39.1089 -144.5700 270° West 489 563 38,000  Level FlightAware Transoceanic
Fri 06:28:00 PM 39.1093 -144.7453 270° West 489 563 38,000  Level FlightAware Transoceanic
Fri 06:29:00 PM 39.1095 -144.9207 270° West 489 563 38,000  Level FlightAware Transoceanic
Fri 06:29:28 PM 39.1000 -144.8500 270° West 474 545 38,000  Level Oakland Oceanic (ODAPS)
Fri 06:30:00 PM 39.1094 -145.0960 270° West 489 563 38,000  Level FlightAware Transoceanic
Fri 06:31:00 PM 39.1090 -145.2713 270° West 489 563 38,000  Level FlightAware Transoceanic
Fri 06:32:00 PM 39.1084 -145.4467 270° West 489 563 38,000  Level FlightAware Transoceanic
Fri 06:33:00 PM 39.1075 -145.6220 270° West 489 563 38,000  Level FlightAware Transoceanic
Fri 06:34:00 PM 39.1063 -145.7973 269° West 489 563 38,000  Level FlightAware Transoceanic
Fri 06:35:00 PM 39.0983 -145.8477 270° West 474 545 38,000  Level FlightAware Transoceanic
Fri 06:36:00 PM 39.0972 -146.0139 269° West 474 545 38,000  Level FlightAware Transoceanic
Fri 06:37:00 PM 39.0959 -146.1802 269° West 474 545 38,000  Level FlightAware Transoceanic
Fri 06:38:00 PM 39.0943 -146.3464 269° West 474 545 38,000  Level FlightAware Transoceanic
Fri 06:39:00 PM 39.0925 -146.5127 269° West 474 545 38,000  Level FlightAware Transoceanic
Fri 06:40:00 PM 39.0905 -146.6789 269° West 474 545 38,000  Level FlightAware Transoceanic
Fri 06:41:00 PM 39.0882 -146.8451 269° West 474 545 38,000  Level FlightAware Transoceanic
Fri 06:42:00 PM 39.0857 -147.0114 269° West 474 545 38,000  Level FlightAware Transoceanic
Fri 06:43:00 PM 39.0829 -147.1776 269° West 474 545 38,000  Level FlightAware Transoceanic
Fri 06:43:14 PM 39.0833 -147.2000 269° West 487 560 38,000  Level Oakland Oceanic (ODAPS)
Fri 06:44:00 PM 39.0799 -147.3437 269° West 474 545 38,000  Level FlightAware Transoceanic
Fri 06:45:00 PM 39.0767 -147.5099 269° West 474 545 38,000  Level FlightAware Transoceanic
Fri 06:46:00 PM 39.0732 -147.6761 268° West 474 545 38,000  Level FlightAware Transoceanic
Fri 06:47:00 PM 39.0695 -147.8422 268° West 474 545 38,000  Level FlightAware Transoceanic
Fri 06:48:00 PM 39.0656 -148.0083 268° West 474 545 38,000  Level FlightAware Transoceanic
Fri 06:49:00 PM 39.0599 -148.2507 268° West 487 560 38,000  Level FlightAware Transoceanic
Fri 06:50:00 PM 39.0551 -148.4258 268° West 487 560 38,000  Level FlightAware Transoceanic
Fri 06:51:00 PM 39.0500 -148.6008 268° West 487 560 38,000  Level FlightAware Transoceanic
Fri 06:52:00 PM 39.0447 -148.7758 268° West 487 560 38,000  Level FlightAware Transoceanic
Fri 06:53:00 PM 39.0391 -148.9508 268° West 487 560 38,000  Level FlightAware Transoceanic
Fri 06:54:00 PM 39.0332 -149.1257 267° West 487 560 38,000  Level FlightAware Transoceanic
Fri 06:55:00 PM 39.0271 -149.3007 267° West 487 560 38,000  Level FlightAware Transoceanic
Fri 06:56:00 PM 39.0207 -149.4756 267° West 487 560 38,000  Level FlightAware Transoceanic
Fri 06:57:00 PM 39.0141 -149.6504 267° West 487 560 38,000  Level FlightAware Transoceanic
Fri 06:57:06 PM 39.0167 -149.6333 267° West 487 560 38,000  Level Oakland Oceanic (ODAPS)
Fri 06:58:00 PM 39.0072 -149.8252 267° West 487 560 38,000  Level FlightAware Transoceanic
Fri 06:59:00 PM 39.0000 -150.0000 266° West 487 560 38,000  Level FlightAware Transoceanic
Fri 06:59:19 PM 39.0000 -150.0000 266° West 491 565 38,000  Level Oakland Oceanic (ODAPS)
Fri 07:00:00 PM 38.9900 -150.1745 266° West 487 560 38,000  Level FlightAware Transoceanic
Fri 07:01:00 PM 38.9798 -150.3489 266° West 487 560 38,000  Level FlightAware Transoceanic
Fri 07:02:00 PM 38.9693 -150.5232 266° West 487 560 38,000  Level FlightAware Transoceanic
Fri 07:03:00 PM 38.9586 -150.6976 265° West 487 560 38,000  Level FlightAware Transoceanic
Fri 07:04:00 PM 38.9476 -150.8718 265° West 487 560 38,000  Level FlightAware Transoceanic
Fri 07:05:00 PM 38.9364 -151.0460 265° West 491 565 38,000  Level FlightAware Transoceanic
Fri 07:06:00 PM 38.9248 -151.2202 265° West 491 565 38,000  Level FlightAware Transoceanic
Fri 07:07:00 PM 38.9131 -151.3943 265° West 491 565 38,000  Level FlightAware Transoceanic
Fri 07:08:00 PM 38.9010 -151.5683 265° West 491 565 38,000  Level FlightAware Transoceanic
Fri 07:09:00 PM 38.8887 -151.7422 265° West 491 565 38,000  Level FlightAware Transoceanic
Fri 07:10:00 PM 38.8762 -151.9162 265° West 491 565 38,000  Level FlightAware Transoceanic
Fri 07:10:58 PM 38.8667 -152.0167 265° West 497 572 38,000  Level Oakland Oceanic (ODAPS)
Fri 07:11:00 PM 38.8634 -152.0900 265° West 491 565 38,000  Level FlightAware Transoceanic
Fri 07:12:00 PM 38.8503 -152.2638 264° West 491 565 38,000  Level FlightAware Transoceanic
Fri 07:13:00 PM 38.8370 -152.4375 264° West 491 565 38,000  Level FlightAware Transoceanic
Fri 07:14:00 PM 38.8234 -152.6112 264° West 491 565 38,000  Level FlightAware Transoceanic
Fri 07:15:00 PM 38.8096 -152.7848 264° West 491 565 38,000  Level FlightAware Transoceanic
Fri 07:16:00 PM 38.7955 -152.9583 264° West 491 565 38,000  Level FlightAware Transoceanic
Fri 07:17:00 PM 38.7826 -153.0914 264° West 497 572 38,000  Level FlightAware Transoceanic
Fri 07:18:00 PM 38.7677 -153.2703 264° West 497 572 38,000  Level FlightAware Transoceanic
Fri 07:19:00 PM 38.7524 -153.4491 264° West 497 572 38,000  Level FlightAware Transoceanic
Fri 07:20:00 PM 38.7369 -153.6278 264° West 497 572 38,000  Level FlightAware Transoceanic
Fri 07:21:00 PM 38.7212 -153.8064 263° West 497 572 38,000  Level FlightAware Transoceanic
Fri 07:22:00 PM 38.7051 -153.9850 263° West 497 572 38,000  Level FlightAware Transoceanic
Fri 07:23:00 PM 38.6888 -154.1635 263° West 497 572 38,000  Level FlightAware Transoceanic
Fri 07:24:00 PM 38.6722 -154.3419 263° West 497 572 38,000 1,111 Level FlightAware Transoceanic
Fri 07:24:48 PM 38.6667 -154.4500 263° West 509 586 40,000  Climbing Oakland Oceanic (ODAPS)
Fri 07:25:00 PM 38.6553 -154.5202 263° West 497 572 38,000 -1,667 Descending FlightAware Transoceanic
Fri 07:26:00 PM 38.6382 -154.6984 263° West 497 572 38,000  Level FlightAware Transoceanic
Fri 07:27:00 PM 38.6208 -154.8766 263° West 497 572 38,000  Level FlightAware Transoceanic
Fri 07:28:00 PM 38.6031 -155.0546 263° West 497 572 38,000  Level FlightAware Transoceanic
Fri 07:29:00 PM 38.5852 -155.2326 263° West 497 572 38,000  Level FlightAware Transoceanic
Fri 07:30:00 PM 38.5670 -155.4105 262° West 497 572 38,000 1,000 Level FlightAware Transoceanic
Fri 07:31:00 PM 38.5581 -155.5319 262° West 509 586 40,000 1,000 Climbing FlightAware Transoceanic
Fri 07:32:00 PM 38.5391 -155.7119 262° West 509 586 40,000  Level FlightAware Transoceanic
Fri 07:33:00 PM 38.5198 -155.8918 262° West 509 586 40,000  Level FlightAware Transoceanic
Fri 07:34:00 PM 38.5002 -156.0716 262° West 509 586 40,000  Level FlightAware Transoceanic
Fri 07:35:00 PM 38.4803 -156.2513 262° West 509 586 40,000  Level FlightAware Transoceanic
Fri 07:36:00 PM 38.4601 -156.4308 262° West 509 586 40,000  Level FlightAware Transoceanic
Fri 07:37:00 PM 38.4397 -156.6104 262° West 509 586 40,000  Level FlightAware Transoceanic
Fri 07:38:00 PM 38.4190 -156.7897 262° West 509 586 40,000  Level FlightAware Transoceanic
Fri 07:38:42 PM 38.4000 -156.9333 262° West 509 586 40,000  Level Oakland Oceanic (ODAPS)
Fri 07:39:00 PM 38.3980 -156.9690 261° West 509 586 40,000  Level FlightAware Transoceanic
Fri 07:40:00 PM 38.3768 -157.1482 261° West 509 586 40,000  Level FlightAware Transoceanic
Fri 07:41:00 PM 38.3553 -157.3273 261° West 509 586 40,000  Level FlightAware Transoceanic
Fri 07:42:00 PM 38.3335 -157.5063 261° West 509 586 40,000  Level FlightAware Transoceanic
Fri 07:43:00 PM 38.3114 -157.6851 261° West 509 586 40,000  Level FlightAware Transoceanic
Fri 07:44:00 PM 38.2891 -157.8639 261° West 509 586 40,000  Level FlightAware Transoceanic
Fri 07:45:00 PM 38.2539 -158.1299 261° West 509 586 40,000  Level FlightAware Transoceanic
Fri 07:46:00 PM 38.2321 -158.3004 261° West 509 586 40,000  Level FlightAware Transoceanic
Fri 07:47:00 PM 38.2100 -158.4709 261° West 509 586 40,000  Level FlightAware Transoceanic
Fri 07:48:00 PM 38.1876 -158.6412 260° West 509 586 40,000  Level FlightAware Transoceanic
Fri 07:49:00 PM 38.1650 -158.8114 260° West 509 586 40,000  Level FlightAware Transoceanic
Fri 07:50:00 PM 38.1422 -158.9816 260° West 509 586 40,000  Level FlightAware Transoceanic
Fri 07:51:00 PM 38.1191 -159.1516 260° West 509 586 40,000  Level FlightAware Transoceanic
Fri 07:52:00 PM 38.0958 -159.3215 260° West 509 586 40,000  Level FlightAware Transoceanic
Fri 07:52:34 PM 38.1000 -159.2833 260° West 469 540 40,000  Level Oakland Oceanic (ODAPS)
Fri 07:53:00 PM 38.0722 -159.4913 260° West 509 586 40,000  Level FlightAware Transoceanic
Fri 07:54:00 PM 38.0484 -159.6610 260° West 509 586 40,000  Level FlightAware Transoceanic
Fri 07:55:00 PM 38.0243 -159.8305 260° West 509 586 40,000  Level FlightAware Transoceanic
Fri 07:56:00 PM 38.0000 -160.0000 253° West 509 586 40,000  Level FlightAware Transoceanic
Fri 07:57:00 PM 37.9597 -160.1621 252° West 509 586 40,000  Level FlightAware Transoceanic
Fri 07:57:03 PM 38.0000 -160.0000 253° West 483 556 40,000  Level Oakland Oceanic (ODAPS)
Fri 07:58:00 PM 37.9597 -160.1621 252° West 469 540 40,000  Level FlightAware Transoceanic
Fri 07:59:00 PM 37.9193 -160.3241 252° West 469 540 40,000  Level FlightAware Transoceanic
Fri 08:00:00 PM 37.8786 -160.4858 252° West 469 540 40,000  Level FlightAware Transoceanic
Fri 08:01:00 PM 37.8377 -160.6474 252° West 469 540 40,000  Level FlightAware Transoceanic
Fri 08:02:00 PM 37.7965 -160.8088 252° West 469 540 40,000  Level FlightAware Transoceanic
Fri 08:03:00 PM 37.7551 -160.9700 252° West 483 556 40,000  Level FlightAware Transoceanic
Fri 08:04:00 PM 37.7136 -161.1311 252° West 483 556 40,000  Level FlightAware Transoceanic
Fri 08:05:00 PM 37.6718 -161.2919 252° West 483 556 40,000  Level FlightAware Transoceanic
Fri 08:06:00 PM 37.6297 -161.4526 252° West 483 556 40,000  Level FlightAware Transoceanic
Fri 08:06:31 PM 37.6167 -161.5167 252° West 484 557 40,000  Level Oakland Oceanic (ODAPS)
Fri 08:07:00 PM 37.5875 -161.6131 252° West 483 556 40,000  Level FlightAware Transoceanic
Fri 08:08:00 PM 37.5451 -161.7734 251° West 483 556 40,000  Level FlightAware Transoceanic
Fri 08:09:00 PM 37.5024 -161.9335 251° West 483 556 40,000  Level FlightAware Transoceanic
Fri 08:10:00 PM 37.4595 -162.0935 251° West 483 556 40,000  Level FlightAware Transoceanic
Fri 08:11:00 PM 37.4164 -162.2533 251° West 483 556 40,000  Level FlightAware Transoceanic
Fri 08:12:00 PM 37.3610 -162.4696 251° West 484 557 40,000  Level FlightAware Transoceanic
Fri 08:13:00 PM 37.3176 -162.6277 251° West 484 557 40,000  Level FlightAware Transoceanic
Fri 08:14:00 PM 37.2741 -162.7857 251° West 484 557 40,000  Level FlightAware Transoceanic
Fri 08:15:00 PM 37.2303 -162.9435 251° West 484 557 40,000  Level FlightAware Transoceanic
Fri 08:16:00 PM 37.1863 -163.1012 251° West 484 557 40,000  Level FlightAware Transoceanic
Fri 08:17:00 PM 37.1421 -163.2586 251° West 484 557 40,000  Level FlightAware Transoceanic
Fri 08:18:00 PM 37.0977 -163.4159 250° West 484 557 40,000  Level FlightAware Transoceanic
Fri 08:19:00 PM 37.0531 -163.5730 250° West 484 557 40,000  Level FlightAware Transoceanic
Fri 08:20:00 PM 37.0083 -163.7299 250° West 484 557 40,000  Level FlightAware Transoceanic
Fri 08:20:19 PM 37.0167 -163.7000 250° West 476 548 40,000  Level Oakland Oceanic (ODAPS)
Fri 08:21:00 PM 36.9633 -163.8866 250° West 484 557 40,000  Level FlightAware Transoceanic
Fri 08:22:00 PM 36.9180 -164.0431 250° West 484 557 40,000  Level FlightAware Transoceanic
Fri 08:23:00 PM 36.8726 -164.1994 250° West 484 557 40,000  Level FlightAware Transoceanic
Fri 08:24:00 PM 36.8270 -164.3556 250° West 484 557 40,000  Level FlightAware Transoceanic
Fri 08:25:00 PM 36.7811 -164.5115 250° West 484 557 40,000  Level FlightAware Transoceanic
Fri 08:26:00 PM 36.7424 -164.6420 250° West 476 548 40,000  Level FlightAware Transoceanic
Fri 08:27:00 PM 36.6960 -164.7983 250° West 476 548 40,000  Level FlightAware Transoceanic
Fri 08:28:00 PM 36.6494 -164.9545 250° West 476 548 40,000  Level FlightAware Transoceanic
Fri 08:29:00 PM 36.6026 -165.1105 249° West 476 548 40,000  Level FlightAware Transoceanic
Fri 08:30:00 PM 36.5555 -165.2662 249° West 476 548 40,000  Level FlightAware Transoceanic
Fri 08:31:00 PM 36.5083 -165.4218 249° West 476 548 40,000  Level FlightAware Transoceanic
Fri 08:32:00 PM 36.4608 -165.5772 249° West 476 548 40,000  Level FlightAware Transoceanic
Fri 08:33:00 PM 36.4132 -165.7324 249° West 476 548 40,000  Level FlightAware Transoceanic
Fri 08:34:00 PM 36.3653 -165.8874 249° West 476 548 40,000  Level FlightAware Transoceanic
Fri 08:34:10 PM 36.3833 -165.8167 249° West 475 547 40,000  Level Oakland Oceanic (ODAPS)
Fri 08:35:00 PM 36.3173 -166.0422 249° West 476 548 40,000  Level FlightAware Transoceanic
Fri 08:36:00 PM 36.2691 -166.1969 249° West 476 548 40,000  Level FlightAware Transoceanic
Fri 08:37:00 PM 36.2206 -166.3513 249° West 476 548 40,000  Level FlightAware Transoceanic
Fri 08:38:00 PM 36.1720 -166.5056 249° West 476 548 40,000  Level FlightAware Transoceanic
Fri 08:39:00 PM 36.1232 -166.6596 249° West 476 548 40,000  Level FlightAware Transoceanic
Fri 08:40:00 PM 36.0992 -166.7253 249° West 475 547 40,000  Level FlightAware Transoceanic
Fri 08:41:00 PM 36.0512 -166.8761 248° West 475 547 40,000  Level FlightAware Transoceanic
Fri 08:42:00 PM 36.0030 -167.0267 248° West 475 547 40,000  Level FlightAware Transoceanic
Fri 08:43:00 PM 35.9546 -167.1771 248° West 475 547 40,000  Level FlightAware Transoceanic
Fri 08:44:00 PM 35.9060 -167.3274 248° West 475 547 40,000  Level FlightAware Transoceanic
Fri 08:45:00 PM 35.8572 -167.4774 248° West 475 547 40,000  Level FlightAware Transoceanic
Fri 08:46:00 PM 35.8082 -167.6273 248° West 475 547 40,000  Level FlightAware Transoceanic
Fri 08:47:00 PM 35.7591 -167.7770 248° West 475 547 40,000  Level FlightAware Transoceanic
Fri 08:48:00 PM 35.7098 -167.9265 248° West 475 547 40,000  Level FlightAware Transoceanic
Fri 08:48:02 PM 35.7167 -167.9000 248° West 466 536 40,000  Level Oakland Oceanic (ODAPS)
Fri 08:49:00 PM 35.6603 -168.0758 248° West 475 547 40,000  Level FlightAware Transoceanic
Fri 08:50:00 PM 35.6105 -168.2249 248° West 475 547 40,000  Level FlightAware Transoceanic
Fri 08:51:00 PM 35.5607 -168.3739 248° West 475 547 40,000  Level FlightAware Transoceanic
Fri 08:52:00 PM 35.5106 -168.5226 247° West 475 547 40,000  Level FlightAware Transoceanic
Fri 08:53:00 PM 35.4604 -168.6712 247° West 475 547 40,000  Level FlightAware Transoceanic
Fri 08:54:00 PM 35.4140 -168.8046 247° West 466 536 40,000  Level FlightAware Transoceanic
Fri 08:55:00 PM 35.3629 -168.9547 247° West 466 536 40,000  Level FlightAware Transoceanic
Fri 08:56:00 PM 35.3116 -169.1046 247° West 466 536 40,000  Level FlightAware Transoceanic
Fri 08:57:00 PM 35.2601 -169.2543 247° West 466 536 40,000  Level FlightAware Transoceanic
Fri 08:58:00 PM 35.2085 -169.4038 247° West 466 536 40,000  Level FlightAware Transoceanic
Fri 08:59:00 PM 35.1566 -169.5531 247° West 466 536 40,000  Level FlightAware Transoceanic
Fri 09:00:00 PM 35.1046 -169.7023 247° West 466 536 40,000  Level FlightAware Transoceanic
Fri 09:01:00 PM 35.0524 -169.8512 247° West 466 536 40,000  Level FlightAware Transoceanic
Fri 09:01:56 PM 35.0333 -169.9167 244° Southwest 462 532 40,000  Level Oakland Oceanic (ODAPS)
Fri 09:02:00 PM 35.0000 -170.0000 259° West 466 536 40,000  Level FlightAware Transoceanic
Fri 09:02:36 PM 35.0000 -170.0000 259° West 461 531 40,000  Level Oakland Oceanic (ODAPS)
Fri 09:03:00 PM 34.9759 -170.1549 259° West 466 536 40,000  Level FlightAware Transoceanic
Fri 09:04:00 PM 34.9515 -170.3096 259° West 466 536 40,000  Level FlightAware Transoceanic
Fri 09:05:00 PM 34.9270 -170.4643 259° West 466 536 40,000  Level FlightAware Transoceanic
Fri 09:06:00 PM 34.9023 -170.6189 259° West 466 536 40,000  Level FlightAware Transoceanic
Fri 09:07:00 PM 34.8773 -170.7734 259° West 466 536 40,000  Level FlightAware Transoceanic
Fri 09:08:00 PM 34.8545 -170.9140 259° West 461 531 40,000  Level FlightAware Transoceanic
Fri 09:09:00 PM 34.8296 -171.0660 259° West 461 531 40,000  Level FlightAware Transoceanic
Fri 09:10:00 PM 34.8045 -171.2179 259° West 461 531 40,000  Level FlightAware Transoceanic
Fri 09:11:00 PM 34.7792 -171.3697 258° West 461 531 40,000  Level FlightAware Transoceanic
Fri 09:12:00 PM 34.7537 -171.5215 258° West 461 531 40,000  Level FlightAware Transoceanic
Fri 09:13:00 PM 34.7280 -171.6731 258° West 461 531 40,000  Level FlightAware Transoceanic
Fri 09:14:00 PM 34.7021 -171.8246 258° West 461 531 40,000  Level FlightAware Transoceanic
Fri 09:15:00 PM 34.6761 -171.9761 258° West 461 531 40,000  Level FlightAware Transoceanic
Fri 09:15:46 PM 34.6667 -172.0167 258° West 461 531 40,000  Level Oakland Oceanic (ODAPS)
Fri 09:16:00 PM 34.6499 -172.1275 258° West 461 531 40,000  Level FlightAware Transoceanic
Fri 09:17:00 PM 34.6234 -172.2787 258° West 461 531 40,000  Level FlightAware Transoceanic
Fri 09:18:00 PM 34.5968 -172.4299 258° West 461 531 40,000  Level FlightAware Transoceanic
Fri 09:19:00 PM 34.5700 -172.5809 258° West 461 531 40,000  Level FlightAware Transoceanic
Fri 09:20:00 PM 34.5431 -172.7319 258° West 461 531 40,000  Level FlightAware Transoceanic
Fri 09:21:00 PM 34.5073 -172.9187 258° West 461 531 40,000  Level FlightAware Transoceanic
Fri 09:22:00 PM 34.4800 -173.0687 258° West 461 531 40,000  Level FlightAware Transoceanic
Fri 09:23:00 PM 34.4526 -173.2186 257° West 461 531 40,000  Level FlightAware Transoceanic
Fri 09:24:00 PM 34.4251 -173.3684 257° West 461 531 40,000  Level FlightAware Transoceanic
Fri 09:25:00 PM 34.3973 -173.5181 257° West 461 531 40,000  Level FlightAware Transoceanic
Fri 09:26:00 PM 34.3694 -173.6676 257° West 461 531 40,000  Level FlightAware Transoceanic
Fri 09:27:00 PM 34.3412 -173.8172 257° West 461 531 40,000  Level FlightAware Transoceanic
Fri 09:28:00 PM 34.3129 -173.9666 257° West 461 531 40,000  Level FlightAware Transoceanic
Fri 09:29:00 PM 34.2844 -174.1158 257° West 461 531 40,000  Level FlightAware Transoceanic
Fri 09:29:39 PM 34.2833 -174.1000 257° West 460 529 40,000  Level Oakland Oceanic (ODAPS)
Fri 09:30:00 PM 34.2558 -174.2650 257° West 461 531 40,000  Level FlightAware Transoceanic
Fri 09:31:00 PM 34.2269 -174.4141 257° West 461 531 40,000  Level FlightAware Transoceanic
Fri 09:32:00 PM 34.1979 -174.5631 257° West 461 531 40,000  Level FlightAware Transoceanic
Fri 09:33:00 PM 34.1687 -174.7120 257° West 461 531 40,000  Level FlightAware Transoceanic
Fri 09:34:00 PM 34.1393 -174.8608 257° West 461 531 40,000  Level FlightAware Transoceanic
Fri 09:35:00 PM 34.1089 -174.9960 257° West 460 529 40,000  Level FlightAware Transoceanic
Fri 09:36:00 PM 34.0792 -175.1450 256° West 460 529 40,000  Level FlightAware Transoceanic
Fri 09:37:00 PM 34.0493 -175.2939 256° West 460 529 40,000  Level FlightAware Transoceanic
Fri 09:38:00 PM 34.0192 -175.4427 256° West 460 529 40,000  Level FlightAware Transoceanic
Fri 09:39:00 PM 33.9890 -175.5913 256° West 460 529 40,000  Level FlightAware Transoceanic
Fri 09:40:00 PM 33.9585 -175.7399 256° West 460 529 40,000  Level FlightAware Transoceanic
Fri 09:41:00 PM 33.9279 -175.8883 256° West 460 529 40,000  Level FlightAware Transoceanic
Fri 09:42:00 PM 33.8971 -176.0367 256° West 460 529 40,000  Level FlightAware Transoceanic
Fri 09:43:00 PM 33.8662 -176.1849 256° West 460 529 40,000  Level FlightAware Transoceanic
Fri 09:43:29 PM 33.8833 -176.1500 256° West 459 528 40,000  Level Oakland Oceanic (ODAPS)
Fri 09:44:00 PM 33.8350 -176.3330 256° West 460 529 40,000  Level FlightAware Transoceanic
Fri 09:45:00 PM 33.8037 -176.4810 256° West 460 529 40,000  Level FlightAware Transoceanic
Fri 09:46:00 PM 33.7722 -176.6289 256° West 460 529 40,000  Level FlightAware Transoceanic
Fri 09:47:00 PM 33.7406 -176.7767 256° West 460 529 40,000  Level FlightAware Transoceanic
Fri 09:48:00 PM 33.7087 -176.9244 255° West 460 529 40,000  Level FlightAware Transoceanic
Fri 09:49:00 PM 33.6901 -177.0454 255° West 459 528 40,000  Level FlightAware Transoceanic
Fri 09:50:00 PM 33.6573 -177.1942 255° West 459 528 40,000  Level FlightAware Transoceanic
Fri 09:51:00 PM 33.6243 -177.3429 255° West 459 528 40,000  Level FlightAware Transoceanic
Fri 09:52:00 PM 33.5911 -177.4915 255° West 459 528 40,000  Level FlightAware Transoceanic
Fri 09:53:00 PM 33.5577 -177.6400 255° West 459 528 40,000  Level FlightAware Transoceanic
Fri 09:54:00 PM 33.5242 -177.7884 255° West 459 528 40,000  Level FlightAware Transoceanic
Fri 09:55:00 PM 33.4904 -177.9367 255° West 459 528 40,000  Level FlightAware Transoceanic
Fri 09:56:00 PM 33.4565 -178.0848 255° West 459 528 40,000  Level FlightAware Transoceanic
Fri 09:57:00 PM 33.4225 -178.2328 255° West 459 528 40,000  Level FlightAware Transoceanic
Fri 09:57:21 PM 33.4333 -178.1833 255° West 456 525 40,000  Level Oakland Oceanic (ODAPS)
Fri 09:58:00 PM 33.3882 -178.3808 254° West 459 528 40,000  Level FlightAware Transoceanic
Fri 09:59:00 PM 33.3538 -178.5285 254° West 459 528 40,000  Level FlightAware Transoceanic
Fri 10:00:00 PM 33.3192 -178.6762 254° West 459 528 40,000  Level FlightAware Transoceanic
Fri 10:01:00 PM 33.2844 -178.8238 254° West 459 528 40,000  Level FlightAware Transoceanic
Fri 10:02:00 PM 33.2495 -178.9712 254° West 459 528 40,000  Level FlightAware Transoceanic
Fri 10:03:00 PM 33.2366 -179.0240 254° West 456 525 40,000  Level FlightAware Transoceanic
Fri 10:04:00 PM 33.2033 -179.1638 254° West 456 525 40,000  Level FlightAware Transoceanic
Fri 10:05:00 PM 33.1698 -179.3034 254° West 456 525 40,000  Level FlightAware Transoceanic
Fri 10:06:00 PM 33.1361 -179.4429 254° West 456 525 40,000  Level FlightAware Transoceanic
Fri 10:07:00 PM 33.1023 -179.5824 254° West 456 525 40,000  Level FlightAware Transoceanic
Fri 10:08:00 PM 33.0684 -179.7217 254° West 456 525 40,000  Level FlightAware Transoceanic
Fri 10:09:00 PM 33.0343 -179.8609 254° West 456 525 40,000  Level FlightAware Transoceanic
Fri 10:09:52 PM 33.0000 180.0000 273° West 458 527 40,000  Level Oakland Oceanic (ODAPS)
Fri 10:10:00 PM 33.0000 -180.0000 273° West 456 525 40,000  Level FlightAware Transoceanic
Fri 10:11:00 PM 33.0060 179.8464 273° West 456 525 40,000  Level FlightAware Transoceanic
Fri 10:11:15 PM 33.0167 179.7833 273° West 458 527 40,000  Level Oakland Oceanic (ODAPS)
Fri 10:12:00 PM 33.0119 179.6927 273° West 456 525 40,000  Level FlightAware Transoceanic
Fri 10:13:00 PM 33.0176 179.5391 272° West 456 525 40,000  Level FlightAware Transoceanic
Fri 10:14:00 PM 33.0230 179.3854 272° West 456 525 40,000  Level FlightAware Transoceanic
Fri 10:15:00 PM 33.0283 179.2317 272° West 456 525 40,000  Level FlightAware Transoceanic
Fri 10:16:00 PM 33.0334 179.0780 272° West 458 527 40,000  Level FlightAware Transoceanic
Fri 10:17:00 PM 33.0476 178.8670 272° West 458 527 40,000  Level FlightAware Transoceanic
Fri 10:18:00 PM 33.0521 178.7142 272° West 458 527 40,000  Level FlightAware Transoceanic
Fri 10:19:00 PM 33.0564 178.5614 272° West 458 527 40,000  Level FlightAware Transoceanic
Fri 10:20:00 PM 33.0605 178.4086 272° West 458 527 40,000  Level FlightAware Transoceanic
Fri 10:21:00 PM 33.0644 178.2557 272° West 458 527 40,000  Level FlightAware Transoceanic
Fri 10:22:00 PM 33.0682 178.1029 272° West 458 527 40,000  Level FlightAware Transoceanic
Fri 10:23:00 PM 33.0718 177.9500 272° West 458 527 40,000  Level FlightAware Transoceanic
Fri 10:24:00 PM 33.0751 177.7972 271° West 458 527 40,000  Level FlightAware Transoceanic
Fri 10:25:00 PM 33.0783 177.6443 271° West 458 527 40,000  Level FlightAware Transoceanic
Fri 10:25:04 PM 33.0667 177.7000 272° West 455 524 40,000  Level Oakland Oceanic (ODAPS)
Fri 10:26:00 PM 33.0813 177.4914 271° West 458 527 40,000  Level FlightAware Transoceanic
Fri 10:27:00 PM 33.0842 177.3385 271° West 458 527 40,000  Level FlightAware Transoceanic
Fri 10:28:00 PM 33.0868 177.1856 271° West 458 527 40,000  Level FlightAware Transoceanic
Fri 10:29:00 PM 33.0893 177.0327 271° West 458 527 40,000  Level FlightAware Transoceanic
Fri 10:30:00 PM 33.0915 176.8797 271° West 458 527 40,000  Level FlightAware Transoceanic
Fri 10:31:00 PM 33.0834 176.7941 271° West 455 524 40,000  Level FlightAware Transoceanic
Fri 10:32:00 PM 33.0856 176.6430 271° West 455 524 40,000  Level FlightAware Transoceanic
Fri 10:33:00 PM 33.0875 176.4920 271° West 455 524 40,000  Level FlightAware Transoceanic
Fri 10:34:00 PM 33.0893 176.3410 271° West 455 524 40,000  Level FlightAware Transoceanic
Fri 10:35:00 PM 33.0909 176.1899 271° West 455 524 40,000  Level FlightAware Transoceanic
Fri 10:36:00 PM 33.0923 176.0389 271° West 455 524 40,000  Level FlightAware Transoceanic
Fri 10:37:00 PM 33.0936 175.8878 271° West 455 524 40,000  Level FlightAware Transoceanic
Fri 10:38:00 PM 33.0947 175.7368 270° West 455 524 40,000  Level FlightAware Transoceanic
Fri 10:38:55 PM 33.1000 175.6167 270° West 457 526 40,000  Level Oakland Oceanic (ODAPS)
Fri 10:39:00 PM 33.0955 175.5857 270° West 455 524 40,000  Level FlightAware Transoceanic
Fri 10:40:00 PM 33.0962 175.4347 270° West 455 524 40,000  Level FlightAware Transoceanic
Fri 10:41:00 PM 33.0967 175.2836 270° West 455 524 40,000  Level FlightAware Transoceanic
Fri 10:42:00 PM 33.0971 175.1326 270° West 455 524 40,000  Level FlightAware Transoceanic
Fri 10:43:00 PM 33.0972 174.9815 270° West 455 524 40,000  Level FlightAware Transoceanic
Fri 10:44:00 PM 33.0972 174.8304 270° West 455 524 40,000  Level FlightAware Transoceanic
Fri 10:44:34 PM 33.1000 174.7833 270° West 453 521 40,000  Level Oakland Oceanic (ODAPS)
Fri 10:45:00 PM 33.1009 174.7052 270° West 457 526 40,000  Level FlightAware Transoceanic
Fri 10:46:00 PM 33.1004 174.5533 270° West 457 526 40,000  Level FlightAware Transoceanic
Fri 10:47:00 PM 33.0997 174.4014 270° West 457 526 40,000  Level FlightAware Transoceanic
Fri 10:48:00 PM 33.0989 174.2495 270° West 457 526 40,000  Level FlightAware Transoceanic
Fri 10:49:00 PM 33.0978 174.0976 269° West 457 526 40,000  Level FlightAware Transoceanic
Fri 10:50:00 PM 33.0966 173.9457 269° West 457 526 40,000  Level FlightAware Transoceanic
Fri 10:51:00 PM 33.0937 173.7362 269° West 453 521 40,000  Level FlightAware Transoceanic
Fri 10:52:00 PM 33.0921 173.5866 269° West 453 521 40,000  Level FlightAware Transoceanic
Fri 10:52:48 PM 33.0833 173.5500 269° West 454 522 40,000  Level Oakland Oceanic (ODAPS)
Fri 10:53:00 PM 33.0903 173.4371 269° West 453 521 40,000  Level FlightAware Transoceanic
Fri 10:54:00 PM 33.0884 173.2875 269° West 453 521 40,000  Level FlightAware Transoceanic
Fri 10:55:00 PM 33.0862 173.1380 269° West 453 521 40,000  Level FlightAware Transoceanic
Fri 10:56:00 PM 33.0839 172.9884 269° West 453 521 40,000  Level FlightAware Transoceanic
Fri 10:57:00 PM 33.0814 172.8389 269° West 453 521 40,000  Level FlightAware Transoceanic
Fri 10:58:00 PM 33.0787 172.6893 269° West 453 521 40,000  Level FlightAware Transoceanic
Fri 10:59:00 PM 33.0713 172.6233 269° West 454 522 40,000  Level FlightAware Transoceanic
Fri 11:00:00 PM 33.0686 172.4689 269° West 454 522 40,000  Level FlightAware Transoceanic
Fri 11:01:00 PM 33.0658 172.3145 269° West 454 522 40,000  Level FlightAware Transoceanic
Fri 11:02:00 PM 33.0627 172.1601 269° West 454 522 40,000  Level FlightAware Transoceanic
Fri 11:03:00 PM 33.0595 172.0057 269° West 454 522 40,000  Level FlightAware Transoceanic
Fri 11:04:00 PM 33.0560 171.8513 268° West 454 522 40,000  Level FlightAware Transoceanic
Fri 11:05:00 PM 33.0524 171.6970 268° West 454 522 40,000  Level FlightAware Transoceanic
Fri 11:06:00 PM 33.0486 171.5426 268° West 454 522 40,000  Level FlightAware Transoceanic
Fri 11:06:39 PM 33.0500 171.4667 268° West 457 526 40,000  Level Oakland Oceanic (ODAPS)
Fri 11:07:00 PM 33.0446 171.3883 268° West 454 522 40,000  Level FlightAware Transoceanic
Fri 11:08:00 PM 33.0404 171.2340 268° West 454 522 40,000  Level FlightAware Transoceanic
Fri 11:09:00 PM 33.0360 171.0797 268° West 454 522 40,000  Level FlightAware Transoceanic
Fri 11:10:00 PM 33.0314 170.9254 268° West 454 522 40,000  Level FlightAware Transoceanic
Fri 11:11:00 PM 33.0267 170.7711 268° West 454 522 40,000  Level FlightAware Transoceanic
Fri 11:12:00 PM 33.0217 170.6169 268° West 454 522 40,000  Level FlightAware Transoceanic
Fri 11:13:00 PM 33.0168 170.4398 268° West 457 526 40,000  Level FlightAware Transoceanic
Fri 11:14:00 PM 33.0114 170.2932 267° West 457 526 40,000  Level FlightAware Transoceanic
Fri 11:15:00 PM 33.0058 170.1466 267° West 457 526 40,000  Level FlightAware Transoceanic
Fri 11:16:00 PM 33.0000 170.0000 280° West 457 526 40,000  Level FlightAware Transoceanic
Fri 11:16:32 PM 33.0000 170.0000 280° West 459 528 40,000  Level Oakland Oceanic (ODAPS)
Fri 11:17:00 PM 33.0214 169.8481 280° West 457 526 40,000  Level FlightAware Transoceanic
Fri 11:18:00 PM 33.0426 169.6962 279° West 457 526 40,000  Level FlightAware Transoceanic
Fri 11:19:00 PM 33.0637 169.5441 279° West 457 526 40,000  Level FlightAware Transoceanic
Fri 11:20:00 PM 33.0846 169.3920 279° West 457 526 40,000  Level FlightAware Transoceanic
Fri 11:20:34 PM 33.0833 169.4000 279° West 460 529 40,000  Level Oakland Oceanic (ODAPS)
Fri 11:21:00 PM 33.1052 169.2398 279° West 457 526 40,000  Level FlightAware Transoceanic
Fri 11:22:00 PM 33.1239 169.1014 279° West 459 528 40,000  Level FlightAware Transoceanic
Fri 11:23:00 PM 33.1439 168.9514 279° West 459 528 40,000  Level FlightAware Transoceanic
Fri 11:24:00 PM 33.1637 168.8013 279° West 459 528 40,000  Level FlightAware Transoceanic
Fri 11:25:00 PM 33.1834 168.6512 279° West 459 528 40,000  Level FlightAware Transoceanic
Fri 11:26:00 PM 33.2029 168.4999 279° West 460 529 40,000  Level FlightAware Transoceanic
Fri 11:27:00 PM 33.2222 168.3496 279° West 460 529 40,000  Level FlightAware Transoceanic
Fri 11:28:00 PM 33.2413 168.1993 279° West 460 529 40,000  Level FlightAware Transoceanic
Fri 11:29:00 PM 33.2602 168.0489 279° West 460 529 40,000  Level FlightAware Transoceanic
Fri 11:30:00 PM 33.2790 167.8985 278° West 460 529 40,000  Level FlightAware Transoceanic
Fri 11:31:00 PM 33.2976 167.7480 278° West 460 529 40,000  Level FlightAware Transoceanic
Fri 11:32:00 PM 33.3159 167.5974 278° West 460 529 40,000  Level FlightAware Transoceanic
Fri 11:33:00 PM 33.3341 167.4467 278° West 460 529 40,000  Level FlightAware Transoceanic
Fri 11:34:00 PM 33.3522 167.2960 278° West 460 529 40,000  Level FlightAware Transoceanic
Fri 11:34:25 PM 33.3500 167.3333 278° West 458 527 40,000  Level Oakland Oceanic (ODAPS)
Fri 11:35:00 PM 33.3700 167.1452 278° West 460 529 40,000  Level FlightAware Transoceanic
Fri 11:36:00 PM 33.3877 166.9944 278° West 460 529 40,000  Level FlightAware Transoceanic
Fri 11:37:00 PM 33.4052 166.8435 278° West 460 529 40,000  Level FlightAware Transoceanic
Fri 11:38:00 PM 33.4225 166.6926 278° West 460 529 40,000  Level FlightAware Transoceanic
Fri 11:39:00 PM 33.4396 166.5416 278° West 460 529 40,000  Level FlightAware Transoceanic
Fri 11:40:00 PM 33.4548 166.4232 278° West 458 527 40,000  Level FlightAware Transoceanic
Fri 11:41:00 PM 33.4717 166.2713 278° West 458 527 40,000  Level FlightAware Transoceanic
Fri 11:42:00 PM 33.4883 166.1194 277° West 458 527 40,000  Level FlightAware Transoceanic
Fri 11:43:00 PM 33.5048 165.9673 277° West 458 527 40,000  Level FlightAware Transoceanic
Fri 11:44:00 PM 33.5210 165.8153 277° West 458 527 40,000  Level FlightAware Transoceanic
Fri 11:45:00 PM 33.5371 165.6631 277° West 458 527 40,000  Level FlightAware Transoceanic
Fri 11:46:00 PM 33.5530 165.5110 277° West 458 527 40,000  Level FlightAware Transoceanic
Fri 11:47:00 PM 33.5687 165.3587 277° West 458 527 40,000  Level FlightAware Transoceanic
Fri 11:48:00 PM 33.5842 165.2064 277° West 458 527 40,000  Level FlightAware Transoceanic
Fri 11:48:15 PM 33.5833 165.2333 277° West 462 532 40,000  Level Oakland Oceanic (ODAPS)
Fri 11:49:00 PM 33.5996 165.0541 277° West 458 527 40,000  Level FlightAware Transoceanic
Fri 11:50:00 PM 33.6147 164.9017 277° West 458 527 40,000  Level FlightAware Transoceanic
Fri 11:51:00 PM 33.6297 164.7492 277° West 458 527 40,000  Level FlightAware Transoceanic
Fri 11:52:00 PM 33.6445 164.5967 277° West 458 527 40,000  Level FlightAware Transoceanic
Fri 11:53:00 PM 33.6591 164.4441 277° West 458 527 40,000  Level FlightAware Transoceanic
Fri 11:54:00 PM 33.6729 164.3137 276° West 462 532 40,000  Level FlightAware Transoceanic
Fri 11:55:00 PM 33.6871 164.1602 276° West 462 532 40,000  Level FlightAware Transoceanic
Fri 11:56:00 PM 33.7012 164.0067 276° West 462 532 40,000  Level FlightAware Transoceanic
Fri 11:57:00 PM 33.7151 163.8532 276° West 462 532 40,000  Level FlightAware Transoceanic
Fri 11:58:00 PM 33.7288 163.6996 276° West 462 532 40,000  Level FlightAware Transoceanic
Fri 11:59:00 PM 33.7423 163.5459 276° West 462 532 40,000  Level FlightAware Transoceanic
Sat 12:00:00 AM 33.7556 163.3922 276° West 462 532 40,000  Level FlightAware Transoceanic
Sat 12:01:00 AM 33.7687 163.2385 276° West 462 532 40,000  Level FlightAware Transoceanic
Sat 12:02:00 AM 33.7817 163.0847 276° West 462 532 40,000  Level FlightAware Transoceanic
Sat 12:03:00 AM 33.7944 162.9309 276° West 462 532 40,000  Level FlightAware Transoceanic
Sat 12:04:00 AM 33.8069 162.7770 276° West 462 532 40,000  Level FlightAware Transoceanic
Sat 12:05:00 AM 33.8193 162.6230 275° West 462 532 40,000  Level FlightAware Transoceanic
Sat 12:06:00 AM 33.8315 162.4691 275° West 462 532 40,000  Level FlightAware Transoceanic
Sat 12:07:00 AM 33.8434 162.3150 275° West 462 532 40,000  Level FlightAware Transoceanic
Sat 12:08:00 AM 33.8552 162.1610 275° West 462 532 40,000  Level FlightAware Transoceanic
Sat 12:09:00 AM 33.8668 162.0069 275° West 462 532 40,000  Level FlightAware Transoceanic
Sat 12:10:00 AM 33.8782 161.8527 275° West 462 532 40,000  Level FlightAware Transoceanic
Sat 12:11:00 AM 33.8894 161.6985 275° West 462 532 40,000  Level FlightAware Transoceanic
Sat 12:12:00 AM 33.9004 161.5443 275° West 462 532 40,000  Level FlightAware Transoceanic
Sat 12:13:00 AM 33.9113 161.3901 275° West 462 532 40,000  Level FlightAware Transoceanic
Sat 12:14:00 AM 33.9219 161.2357 275° West 462 532 40,000  Level FlightAware Transoceanic
Sat 12:15:00 AM 33.9323 161.0814 275° West 462 532 40,000  Level FlightAware Transoceanic
Sat 12:16:00 AM 33.9426 160.9270 275° West 462 532 40,000  Level FlightAware Transoceanic
Sat 12:17:00 AM 33.9526 160.7726 274° West 462 532 40,000  Level FlightAware Transoceanic
Sat 12:18:00 AM 33.9625 160.6182 274° West 462 532 40,000  Level FlightAware Transoceanic
Sat 12:19:00 AM 33.9722 160.4637 274° West 462 532 40,000  Level FlightAware Transoceanic
Sat 12:20:00 AM 33.9816 160.3091 274° West 462 532 40,000  Level FlightAware Transoceanic
Sat 12:21:00 AM 33.9909 160.1546 274° West 462 532 40,000  Level FlightAware Transoceanic
Sat 12:22:00 AM 34.0000 160.0000 280° West 462 532 40,000  Level FlightAware Transoceanic
Sat 12:23:00 AM 34.0209 159.8527 280° West 462 532 40,000  Level FlightAware Transoceanic
Sat 12:24:00 AM 34.0415 159.7054 280° West 462 532 40,000  Level FlightAware Transoceanic
Sat 12:25:00 AM 34.0621 159.5580 279° West 462 532 40,000  Level FlightAware Transoceanic
Sat 12:26:00 AM 34.0824 159.4105 279° West 462 532 40,000  Level FlightAware Transoceanic
Sat 12:27:00 AM 34.1026 159.2629 279° West 462 532 40,000  Level FlightAware Transoceanic
Sat 12:28:00 AM 34.1225 159.1153 279° West 462 532 40,000  Level FlightAware Transoceanic
Sat 12:29:00 AM 34.1423 158.9676 279° West 462 532 40,000  Level FlightAware Transoceanic
Sat 12:30:00 AM 34.1620 158.8198 279° West 462 532 40,000  Level FlightAware Transoceanic
Sat 12:31:00 AM 34.1814 158.6720 279° West 462 532 40,000  Level FlightAware Transoceanic
Sat 12:32:00 AM 34.2007 158.5240 279° West 462 532 40,000  Level FlightAware Transoceanic
Sat 12:33:00 AM 34.2198 158.3761 279° West 462 532 40,000  Level FlightAware Transoceanic
Sat 12:34:00 AM 34.2387 158.2280 279° West 462 532 40,000  Level FlightAware Transoceanic
Sat 12:35:00 AM 34.2574 158.0799 279° West 462 532 40,000  Level FlightAware Transoceanic
Sat 12:36:00 AM 34.2760 157.9317 279° West 462 532 40,000  Level FlightAware Transoceanic
Sat 12:37:00 AM 34.2944 157.7835 278° West 462 532 40,000  Level FlightAware Transoceanic
Sat 12:38:00 AM 34.3126 157.6352 278° West 462 532 40,000  Level FlightAware Transoceanic
Sat 12:39:00 AM 34.3306 157.4868 278° West 462 532 40,000  Level FlightAware Transoceanic
Sat 12:40:00 AM 34.3484 157.3384 278° West 462 532 40,000  Level FlightAware Transoceanic
Sat 12:41:00 AM 34.3661 157.1899 278° West 462 532 40,000  Level FlightAware Transoceanic
Sat 12:42:00 AM 34.3836 157.0414 278° West 462 532 40,000  Level FlightAware Transoceanic
Sat 12:43:00 AM 34.4009 156.8927 278° West 462 532 40,000  Level FlightAware Transoceanic
Sat 12:44:00 AM 34.4180 156.7441 278° West 462 532 40,000  Level FlightAware Transoceanic
Sat 12:45:00 AM 34.4350 156.5953 278° West 462 532 40,000  Level FlightAware Transoceanic
Sat 12:46:00 AM 34.4518 156.4465 278° West 462 532 40,000  Level FlightAware Transoceanic
Sat 12:47:00 AM 34.4683 156.2977 278° West 462 532 40,000  Level FlightAware Transoceanic
Sat 12:48:00 AM 34.4847 156.1488 278° West 462 532 40,000  Level FlightAware Transoceanic
Sat 12:49:00 AM 34.5010 155.9998 277° West 462 532 40,000  Level FlightAware Transoceanic
Sat 12:50:00 AM 34.5170 155.8508 277° West 462 532 40,000  Level FlightAware Transoceanic
Sat 12:51:00 AM 34.5329 155.7017 277° West 462 532 40,000  Level FlightAware Transoceanic
Sat 12:52:00 AM 34.5486 155.5525 277° West 462 532 40,000  Level FlightAware Transoceanic
Sat 12:53:00 AM 34.5641 155.4033 277° West 462 532 40,000  Level FlightAware Transoceanic
Sat 12:54:00 AM 34.5794 155.2540 277° West 462 532 40,000  Level FlightAware Transoceanic
Sat 12:55:00 AM 34.5945 155.1047 277° West 462 532 40,000  Level FlightAware Transoceanic
Sat 12:56:00 AM 34.6095 154.9554 277° West 462 532 40,000  Level FlightAware Transoceanic
Sat 12:57:00 AM 34.6243 154.8060 277° West 462 532 40,000  Level FlightAware Transoceanic
Sat 12:58:00 AM 34.6389 154.6565 277° West 462 532 40,000  Level FlightAware Transoceanic
Sat 12:59:00 AM 34.6533 154.5070 277° West 462 532 40,000  Level FlightAware Transoceanic
Sat 01:00:00 AM 34.6675 154.3574 277° West 462 532 40,000  Level FlightAware Transoceanic
Sat 01:01:00 AM 34.6815 154.2077 276° West 462 532 40,000  Level FlightAware Transoceanic
Sat 01:02:00 AM 34.6954 154.0581 276° West 462 532 40,000  Level FlightAware Transoceanic
Sat 01:03:00 AM 34.7091 153.9083 276° West 462 532 40,000  Level FlightAware Transoceanic
Sat 01:04:00 AM 34.7226 153.7586 276° West 462 532 40,000  Level FlightAware Transoceanic
Sat 01:05:00 AM 34.7359 153.6087 276° West 462 532 40,000  Level FlightAware Transoceanic
Sat 01:06:00 AM 34.7490 153.4589 276° West 462 532 40,000  Level FlightAware Transoceanic
Sat 01:07:00 AM 34.7620 153.3089 276° West 462 532 40,000  Level FlightAware Transoceanic
Sat 01:08:00 AM 34.7747 153.1590 276° West 462 532 40,000  Level FlightAware Transoceanic
Sat 01:09:00 AM 34.7873 153.0090 276° West 462 532 40,000  Level FlightAware Transoceanic
Sat 01:10:00 AM 34.7997 152.8589 276° West 462 532 40,000  Level FlightAware Transoceanic
Sat 01:11:00 AM 34.8119 152.7088 276° West 462 532 40,000  Level FlightAware Transoceanic
Sat 01:12:00 AM 34.8239 152.5587 276° West 462 532 40,000  Level FlightAware Transoceanic
Sat 01:13:00 AM 34.8358 152.4085 275° West 462 532 40,000  Level FlightAware Transoceanic
Sat 01:14:00 AM 34.8474 152.2582 275° West 462 532 40,000  Level FlightAware Transoceanic
Sat 01:15:00 AM 34.8589 152.1080 275° West 462 532 40,000  Level FlightAware Transoceanic
Sat 01:16:00 AM 34.8702 151.9576 275° West 462 532 40,000  Level FlightAware Transoceanic
Sat 01:17:00 AM 34.8813 151.8073 275° West 462 532 40,000  Level FlightAware Transoceanic
Sat 01:18:00 AM 34.8922 151.6569 275° West 462 532 40,000  Level FlightAware Transoceanic
Sat 01:19:00 AM 34.9029 151.5064 275° West 462 532 40,000  Level FlightAware Transoceanic
Sat 01:20:00 AM 34.9135 151.3560 275° West 462 532 40,000  Level FlightAware Transoceanic
Sat 01:21:00 AM 34.9238 151.2054 275° West 462 532 40,000  Level FlightAware Transoceanic
Sat 01:22:00 AM 34.9340 151.0549 275° West 462 532 40,000  Level FlightAware Transoceanic
Sat 01:23:00 AM 34.9440 150.9043 275° West 462 532 40,000  Level FlightAware Transoceanic
Sat 01:24:00 AM 34.9538 150.7537 274° West 462 532 40,000  Level FlightAware Transoceanic
Sat 01:25:00 AM 34.9634 150.6030 274° West 462 532 40,000  Level FlightAware Transoceanic
Sat 01:26:00 AM 34.9728 150.4523 274° West 462 532 40,000  Level FlightAware Transoceanic
Sat 01:27:00 AM 34.9821 150.3016 274° West 462 532 40,000  Level FlightAware Transoceanic
Sat 01:28:00 AM 34.9911 150.1508 274° West 462 532 40,000 -105 Level FlightAware Transoceanic
Sat 01:29:00 AM 35.0002 149.9962 274° West  Level FlightAware Approximate
Sat 01:30:00 AM 35.0007 149.9924 277° West  Level FlightAware Approximate
Sat 01:31:00 AM 35.0153 149.8388 277° West  Level FlightAware Approximate
Sat 01:32:00 AM 35.0297 149.6852 277° West  Level FlightAware Approximate
Sat 01:33:00 AM 35.0439 149.5315 276° West  Level FlightAware Approximate
Sat 01:34:00 AM 35.0579 149.3778 276° West  Level FlightAware Approximate
Sat 01:35:00 AM 35.0717 149.2240 276° West  Level FlightAware Approximate
Sat 01:36:00 AM 35.0854 149.0701 276° West  Level FlightAware Approximate
Sat 01:37:00 AM 35.0988 148.9162 276° West  Level FlightAware Approximate
Sat 01:38:00 AM 35.1120 148.7623 276° West  Level FlightAware Approximate
Sat 01:39:00 AM 35.1250 148.6083 276° West  Level FlightAware Approximate
Sat 01:40:00 AM 35.1379 148.4542 276° West  Level FlightAware Approximate
Sat 01:41:00 AM 35.1505 148.3001 276° West  Level FlightAware Approximate
Sat 01:42:00 AM 35.1630 148.1460 276° West  Level FlightAware Approximate
Sat 01:43:00 AM 35.1752 147.9918 276° West  Level FlightAware Approximate
Sat 01:44:00 AM 35.1873 147.8376 276° West  Level FlightAware Approximate
Sat 01:45:00 AM 35.1991 147.6833 275° West  Level FlightAware Approximate
Sat 01:46:00 AM 35.2108 147.5290 275° West  Level FlightAware Approximate
Sat 01:47:00 AM 35.2223 147.3746 275° West  Level FlightAware Approximate
Sat 01:48:00 AM 35.2335 147.2202 275° West  Level FlightAware Approximate
Sat 01:49:00 AM 35.2446 147.0657 275° West  Level FlightAware Approximate
Sat 01:50:00 AM 35.2555 146.9112 275° West  Level FlightAware Approximate
Sat 01:51:00 AM 35.2662 146.7567 275° West  Level FlightAware Approximate
Sat 01:52:00 AM 35.2767 146.6021 275° West  Level FlightAware Approximate
Sat 01:53:00 AM 35.2870 146.4475 275° West  Level FlightAware Approximate
Sat 01:54:00 AM 35.2971 146.2928 275° West  Level FlightAware Approximate
Sat 01:55:00 AM 35.3070 146.1382 275° West  Level FlightAware Approximate
Sat 01:56:00 AM 35.3167 145.9834 274° West  Level FlightAware Approximate
Sat 01:57:00 AM 35.3129 145.8283 268° West  Level FlightAware Approximate
Sat 01:58:00 AM 35.3089 145.6732 268° West  Level FlightAware Approximate
Sat 01:59:00 AM 35.3047 145.5181 268° West  Level FlightAware Approximate
Sat 02:00:00 AM 35.3004 145.3630 268° West  Level FlightAware Approximate
Sat 02:01:00 AM 35.2947 145.2080 267° West  Level FlightAware Approximate
Sat 02:02:00 AM 35.2888 145.0530 267° West  Level FlightAware Approximate
Sat 02:03:00 AM 35.2826 144.8981 267° West  Level FlightAware Approximate
Sat 02:04:00 AM 35.2763 144.7431 267° West  Level FlightAware Approximate
Sat 02:05:00 AM 35.2697 144.5882 267° West  Level FlightAware Approximate
Sat 02:06:00 AM 35.2630 144.4333 267° West  Level FlightAware Approximate
Sat 02:07:00 AM 35.2560 144.2785 267° West  Level FlightAware Approximate
Sat 02:08:00 AM 35.2489 144.1237 267° West  Level FlightAware Approximate
Sat 02:09:00 AM 35.2416 143.9689 267° West  Level FlightAware Approximate
Sat 02:10:00 AM 35.2340 143.8141 267° West  Level FlightAware Approximate
Sat 02:11:00 AM 35.2769 143.6695 292° West  Level FlightAware Approximate
Sat 02:12:00 AM 35.3237 143.5254 289° West  Level FlightAware Approximate
Sat 02:13:00 AM 35.3658 143.3790 289° West  Level FlightAware Approximate
Sat 02:14:00 AM 35.4077 143.2323 289° West  Level FlightAware Approximate
Sat 02:15:00 AM 35.4494 143.0856 289° West  Level FlightAware Approximate
Sat 02:16:00 AM 35.4973 142.9417 292° West  Level FlightAware Approximate
Sat 02:17:00 AM 35.5452 142.7977 292° West  Level FlightAware Approximate
Sat 02:18:00 AM 35.5932 142.6536 292° West  Level FlightAware Approximate
Sat 02:18:16 AM 35.5220 142.8880 288° West 385 443 34,600  Level FlightAware ADS-B
Sat 02:18:55 AM 35.5260 142.8090 274° West 370 426 32,300 -2,960 Descending FlightAware ADS-B
Sat 02:19:00 AM 35.6340 142.5062 288° West  Level FlightAware Approximate
Sat 02:19:31 AM 35.5310 142.7380 275° West 356 410 30,900  Level FlightAware ADS-B
Sat 02:20:01 AM 35.5350 142.6760 275° West 338 389 29,200 -3,130 Descending FlightAware ADS-B
Sat 02:20:40 AM 35.5380 142.6090 273° West 330 380 27,300 -2,414 Descending FlightAware ADS-B
Sat 02:21:28 AM 35.5430 142.5190 274° West 328 377 25,700 -1,769 Descending FlightAware ADS-B
Sat 02:21:58 AM 35.5460 142.4650 274° West 330 380 25,000 -1,397 Descending FlightAware ADS-B
Sat 02:22:41 AM 35.5510 142.3850 274° West 322 371 24,000 -1,397 Descending FlightAware ADS-B
Sat 02:23:11 AM 35.5540 142.3290 274° West 283 326 23,300 -1,313 Descending FlightAware ADS-B
Sat 02:23:45 AM 35.5570 142.2740 274° West 316 364 22,600 -1,378 Descending FlightAware ADS-B
Sat 02:24:25 AM 35.5620 142.1950 274° West 311 358 21,600 -1,403 Descending FlightAware ADS-B
Sat 02:25:02 AM 35.5650 142.1310 273° West 308 354 20,800 -1,342 Descending FlightAware ADS-B
Sat 02:25:41 AM 35.5690 142.0630 274° West 308 354 19,900 -1,286 Descending FlightAware ADS-B
Sat 02:26:12 AM 35.5710 142.0160 273° West 308 354 19,300 -1,385 Descending FlightAware ADS-B
Sat 02:26:46 AM 35.5740 141.9510 273° West 302 348 18,400 -1,541 Descending FlightAware ADS-B
Sat 02:27:26 AM 35.5780 141.8810 274° West 303 349 17,400 -1,326 Descending FlightAware ADS-B
Sat 02:28:21 AM 35.5830 141.7930 274° West 297 342 16,300 -933 Descending FlightAware ADS-B
Sat 02:28:56 AM 35.5810 141.7370 268° West 297 342 16,000 -225 Descending FlightAware ADS-B
Sat 02:29:41 AM 35.5770 141.6590 266° West 290 334 16,000  Level FlightAware ADS-B
Sat 02:30:22 AM 35.5730 141.5900 266° West 288 331 16,000  Level FlightAware ADS-B
Sat 02:30:57 AM 35.5700 141.5310 266° West 287 330 16,000  Level FlightAware ADS-B
Sat 02:31:27 AM 35.5740 141.4810 276° West 290 334 16,000  Level FlightAware ADS-B
Sat 02:31:42 AM 35.5820 141.4600 295° West 296 341 16,000  Level FlightAware ADS-B
Sat 02:32:17 AM 35.6050 141.4090 299° West 298 343 16,000  Level FlightAware ADS-B
Sat 02:32:52 AM 35.6300 141.3540 299° West 298 343 16,000 -343 Level FlightAware ADS-B
Sat 02:33:27 AM 35.6520 141.3050 299° West 295 339 15,600 -943 Descending FlightAware ADS-B
Sat 02:34:02 AM 35.6760 141.2520 299° West 289 333 14,900 -1,286 Descending FlightAware ADS-B
Sat 02:34:37 AM 35.6980 141.2010 298° West 292 336 14,100 -1,543 Descending FlightAware ADS-B
Sat 02:35:12 AM 35.7220 141.1490 300° West 305 351 13,100 -1,286 Descending FlightAware ADS-B
Sat 02:35:47 AM 35.7450 141.0970 299° West 291 335 12,600 -1,114 Descending FlightAware ADS-B
Sat 02:36:22 AM 35.7680 141.0460 299° West 292 336 11,800 -1,629 Descending FlightAware ADS-B
Sat 02:36:57 AM 35.7920 140.9940 300° West 295 339 10,700 -1,754 Descending FlightAware ADS-B
Sat 02:37:27 AM 35.8110 140.9490 298° West 288 331 9,900 -1,680 Descending FlightAware ADS-B
Sat 02:37:47 AM 35.8240 140.9200 299° West 291 335 9,300 -1,680 Descending FlightAware ADS-B
Sat 02:37:52 AM 35.8250 140.9160 287° West 291 335 9,200 -1,029 Descending FlightAware ADS-B
Sat 02:38:22 AM 35.8210 140.8670 264° West 287 330 8,700 -900 Descending FlightAware ADS-B
Sat 02:38:32 AM 35.8140 140.8540 236° Southwest 279 321 8,600  Descending FlightAware ADS-B
Sat 02:38:37 AM 35.8080 140.8490 214° Southwest 269 310 8,700  Climbing FlightAware ADS-B
Sat 02:38:52 AM 35.7910 140.8390 206° Southwest 255 293 8,600 -171 Descending FlightAware ADS-B
Sat 02:39:12 AM 35.7670 140.8290 199° South 257 296 8,600 -150 Level FlightAware ADS-B
Sat 02:39:32 AM 35.7450 140.8210 196° South 251 289 8,500 -600 Descending FlightAware ADS-B
Sat 02:39:52 AM 35.7210 140.8250 172° South 249 287 8,200 -1,050 Descending FlightAware ADS-B
Sat 02:40:12 AM 35.6970 140.8320 167° South 248 285 7,800 -1,050 Descending FlightAware ADS-B
Sat 02:40:32 AM 35.6750 140.8390 166° South 247 284 7,500 -750 Descending FlightAware ADS-B
Sat 02:40:52 AM 35.6540 140.8460 165° South 237 273 7,300 -600 Descending FlightAware ADS-B
Sat 02:41:12 AM 35.6310 140.8520 168° South 230 265 7,100 -857 Descending FlightAware ADS-B
Sat 02:41:41 AM 35.6020 140.8600 167° South 231 266 6,600 -960 Descending FlightAware ADS-B
Sat 02:42:02 AM 35.5780 140.8660 169° South 230 265 6,300 -1,024 Descending FlightAware ADS-B
Sat 02:42:22 AM 35.5570 140.8700 171° South 229 264 5,900 -1,050 Descending FlightAware ADS-B
Sat 02:42:42 AM 35.5380 140.8610 201° Southwest 236 272 5,600 -889 Descending FlightAware ADS-B
Sat 02:42:49 AM 35.5320 140.8570 208° Southwest 234 269 5,500 -1,000 Descending FlightAware ADS-B
Sat 02:43:18 AM 35.5060 140.8330 217° Southwest 242 278 5,000 -1,000 Descending FlightAware ADS-B
Sat 02:43:37 AM 35.4870 140.8150 218° Southwest 241 277 4,700 -735 Descending FlightAware ADS-B
Sat 02:44:07 AM 35.4620 140.7920 217° Southwest 231 266 4,400 -492 Descending FlightAware ADS-B
Sat 02:44:38 AM 35.4370 140.7670 219° Southwest 213 245 4,200 -387 Descending FlightAware ADS-B
Sat 02:45:09 AM 35.4120 140.7430 218° Southwest 196 226 4,000 -500 Descending FlightAware ADS-B
Sat 02:45:38 AM 35.3920 140.7210 222° Southwest 197 227 3,700 -585 Descending FlightAware ADS-B
Sat 02:45:50 AM 35.3890 140.7080 254° West 198 228 3,600 -167 Descending FlightAware ADS-B
Sat 02:46:14 AM 35.3920 140.6820 278° West 203 234 3,600  Level FlightAware ADS-B
Sat 02:46:19 AM 35.3950 140.6770 306° West 199 229 3,600  Level FlightAware ADS-B
Sat 02:46:42 AM 35.4080 140.6560 307° West 196 226 3,600  Level FlightAware ADS-B
Sat 02:47:04 AM 35.4230 140.6410 321° Northwest 195 224 3,600  Level FlightAware ADS-B
Sat 02:47:22 AM 35.4360 140.6280 321° Northwest 189 217 3,600  Level FlightAware ADS-B
Sat 02:47:42 AM 35.4500 140.6150 323° Northwest 187 215 3,600  Level FlightAware ADS-B
Sat 02:48:06 AM 35.4650 140.6000 321° Northwest 175 201 3,600  Level FlightAware ADS-B
Sat 02:48:17 AM 35.4720 140.5930 321° Northwest 176 203 3,600  Level FlightAware ADS-B
Sat 02:48:39 AM 35.4860 140.5790 321° Northwest 174 200 3,600  Level FlightAware ADS-B
Sat 02:48:59 AM 35.4990 140.5680 325° Northwest 175 201 3,600  Level FlightAware ADS-B
Sat 02:49:23 AM 35.5160 140.5550 328° Northwest 175 201 3,600  Level FlightAware ADS-B
Sat 02:49:43 AM 35.5300 140.5450 330° Northwest 175 201 3,600 150 Level FlightAware ADS-B
Sat 02:50:03 AM 35.5440 140.5350 330° Northwest 177 204 3,700  Climbing FlightAware ADS-B
Sat 02:50:24 AM 35.5580 140.5240 327° Northwest 177 204 3,600 -150 Descending FlightAware ADS-B
Sat 02:50:43 AM 35.5720 140.5140 330° Northwest 178 205 3,600 -400 Level FlightAware ADS-B
Sat 02:51:09 AM 35.5910 140.5000 329° Northwest 177 204 3,300 -783 Descending FlightAware ADS-B
Sat 02:51:29 AM 35.6050 140.4900 330° Northwest 172 198 3,000 -900 Descending FlightAware ADS-B
Sat 02:51:49 AM 35.6180 140.4810 331° Northwest 170 196 2,700 -900 Descending FlightAware ADS-B
Sat 02:52:09 AM 35.6320 140.4710 330° Northwest 167 192 2,400 -900 Descending FlightAware ADS-B
Sat 02:52:29 AM 35.6460 140.4610 330° Northwest 161 185 2,100 -955 Descending FlightAware ADS-B
Sat 02:52:53 AM 35.6600 140.4510 330° Northwest 156 180 1,700 -933 Descending FlightAware ADS-B
Sat 02:53:14 AM 35.6730 140.4420 331° Northwest 143 165 1,400 -750 Descending FlightAware ADS-B
Sat 02:53:33 AM 35.6820 140.4350 328° Northwest 127 146 1,200 -615 Descending FlightAware ADS-B
Sat 02:53:53 AM 35.6930 140.4270 329° Northwest 126 145 1,000 -682 Descending FlightAware ADS-B
Sat 02:54:17 AM 35.7050 140.4180 329° Northwest 125 144 700 -714 Descending FlightAware ADS-B
Sat 02:54:35 AM 35.7140 140.4120 332° Northwest 123 142 500 -600 Descending FlightAware ADS-B
Sat 02:54:57 AM 35.7250 140.4040 329° Northwest 129 148 300 -545 Descending FlightAware ADS-B
Sat 02:55:13 AM 35.7340 140.3980 332° Northwest 130 150 -1,125 Descending FlightAware ADS-B
Sat 02:55:29 AM 35.7420 140.3920 329° Northwest 130 150  Level FlightAware ADS-B
Sat 02:55:56 AM 35.7540 140.3830 329° Northwest 130 150  Level FlightAware ADS-B

Login

Don't have an account? Register now (free) for customized features, flight alerts, and more!